ZAĶIS skrējiena rezultāti (spliti)
Vieta Dalībnieks Nr. Klubs Rezultāts Grupa Vieta grupā Dzim. Pret uzvarētāju Pret grupas uzvarētāju Kalnu karalis Punkti distancē Punkti KK Punkti kopā
1 Artjoms Rekuņenko 13669 PATRIA SPORTLAND 00:50:33 VZ3 1 V1 +00:00 +00:00 00:01:41 1000 208 1208
2 Andris Ronimoiss 3682 Inov8 / OSveikals.lv / RIEKSTI 00:51:13 VZ3 2 V2 +00:40 +00:40 00:01:34 987 223 1210
3 Jevgēnijs Turkins 3864 Lūša pēdās 00:51:43 VZ3 3 V3 +01:10 +01:10 00:01:41 977 208 1185
4 Roberts Slotiņš 3565 00:52:56 VZ3 4 V4 +02:23 +02:23 00:01:41 955 208 1163
5 Agris Krūmiņš 3101 Vecpiebalga 00:54:00 VZ3 5 V5 +03:27 +03:27 00:01:33 936 226 1162
6 Edijs Dzalbs 3896 Inov8 I OSVeikals.lv Team 00:54:48 VZ2 1 V6 +04:15 +00:00 00:01:22 922 256 1178
7 Santis Setkovskis 3572 SSK Bebra 00:55:04 VZ2 2 V7 +04:31 +00:16 00:01:34 918 223 1141
8 Valdis Aņikejevs 13661 SPORTLAND 00:55:24 VZ3 8 V8 +04:51 +04:51 00:01:29 912 236 1148
9 Jānis Vītiņš 3608 VSK Noskrien Rieksti 00:56:54 VZ3 9 V9 +06:21 +06:21 00:01:28 888 239 1127
10 Jānis Mūrnieks 13734 SK Tērauds 00:57:06 VZ3 10 V10 +06:33 +06:33 00:01:31 885 231 1116
11 Raitis Grablovskis 3872 Baltais 00:57:07 VZ3 11 V11 +06:34 +06:34 00:01:28 885 239 1124
12 Roberts Sukonovs 13756 Gentlemens Club 00:57:10 VZ3 12 V12 +06:37 +06:37 00:01:29 884 236 1120
13 Jānis Olengovičs 3152 TRX Cēsis 00:57:11 VZ3 13 V13 +06:38 +06:38 00:01:37 884 216 1100
14 Agnis Stulpinskis 13591 VSK "Burkānciems & Co" 00:57:27 VZ3 14 V14 +06:54 +06:54 00:02:03 880 171 1051
15 Artūrs Kārkliņš 13698 Kocēnu novads 00:57:33 VZ3 15 V15 +07:00 +07:00 00:01:41 878 208 1086
16 Reinis Korsūnovs 3441 Talsu pakalnu sporta klubs 00:57:42 VZ3 16 V16 +07:09 +07:09 00:01:13 876 288 1164
17 Dāvis Uļģis 3259 Izturība 00:57:56 VZ3 17 V17 +07:23 +07:23 00:01:55 873 183 1056
18 Maciej Kasjan 3981 eFP BG LATVIA 00:57:58 VZ3 18 V18 +07:25 +07:25 00:01:40 872 210 1082
19 Andrejs Jesko 3832 00:58:03 VZ3 19 V19 +07:30 +07:30 00:01:47 871 196 1067
20 Jānis Veļķeris 4058 01:00:48 VZ2 3 V20 +10:15 +06:00 00:01:48 831 194 1025
21 Markus Urtāns 4035 Lūša pēdās 01:00:53 VZ2 4 V21 +10:20 +06:05 00:01:46 830 198 1028
22 Mārtiņš Babkins 3869 Baltais 01:00:53 VZ3 20 V22 +10:20 +10:20 00:01:44 830 202 1032
23 Artūrs Ozoliņš 4069 PH Print 01:00:55 VZ3 21 V23 +10:22 +10:22 00:02:01 830 174 1004
24 Dins Vecāns 3286 adidas Runners | Riga 01:01:17 VZ3 22 V24 +10:44 +10:44 00:01:57 825 179 1004
25 Andris Ponomarenko 13739 VSK Noskrien Blonde 01:01:17 VZ3 23 V25 +10:44 +10:44 00:01:25 825 247 1072
26 Edgars Apinis 3748 ASK PATRIA 01:01:30 VZ3 24 V26 +10:57 +10:57 00:01:32 822 228 1050
27 Sandis Āboliņš 13695 Kocēnu novads 1 01:02:13 VZ2 5 V27 +11:40 +07:25 00:01:39 812 212 1024
28 Nauris Spalviņš 3855 SPB RUN/Asics 01:02:15 VZ3 25 V28 +11:42 +11:42 00:01:43 812 204 1016
29 Juris Gudēvics - Liepiņš 3915 Jasmīni 01:02:19 VZ3 26 V29 +11:46 +11:46 00:01:30 811 233 1044
30 Andrejs Bondarevs 3870 Baltais 01:02:29 VZ3 27 V30 +11:56 +11:56 00:01:31 809 231 1040
31 Baiba Šņoriņa 3671 Talsu pakalnu sporta klubs 01:02:41 SZ2 1 S1 +00:00 +00:00 00:01:31 1000 284 1284
32 Andris Mireckis 3921 Talsu Pauguraines zaķi 01:02:46 VZ3 28 V31 +12:13 +12:13 00:01:53 805 186 991
33 Mikus Zvirbulis 3754 OK Ogre 01:02:50 VZ3 29 V32 +12:17 +12:17 00:01:52 805 188 993
34 Pauls Rubenis 3581 01:03:00 VZ2 6 V33 +12:27 +08:12 00:01:57 802 179 981
35 Jānis Gailis 13686 Kocēnu novads-1 01:03:05 VZ3 30 V34 +12:32 +12:32 00:01:30 801 233 1034
36 Dzintars Skrundenieks 13724 Liepāja 01:03:18 VZ3 31 V35 +12:45 +12:45 00:02:02 799 172 971
37 Jānis Kozlovskis 3457 01:03:22 VZ3 32 V36 +12:49 +12:49 00:01:56 798 181 979
38 Uģis Karasevs 13699 Kocēnu novads 01:03:22 VZ3 33 V37 +12:49 +12:49 00:01:50 798 191 989
39 Nauris Dzenis 3404 MADONA 01:03:32 VZ3 34 V38 +12:59 +12:59 00:01:58 796 178 974
40 Tomass Randa 3224 01:03:44 VZ1 1 V39 +13:11 +00:00 00:01:52 793 188 981
41 Miķelis Zumbergs 3624 01:03:50 VZ3 35 V40 +13:17 +13:17 00:01:44 792 202 994
42 Elīna Kārkliņa 13666 PATRIA SPORTLAND 01:03:50 SZ3 1 S2 +01:09 +00:00 00:01:57 982 221 1203
43 Dzintars Lejiņš 3822 Fans/Škoda 01:04:06 VZ3 36 V41 +13:33 +13:33 00:01:54 789 184 973
44 Aleksejs Bute 3073 Lidosta 01:04:20 VZ3 37 V42 +13:47 +13:47 00:01:49 786 193 979
45 Artūrs Andersons 3745 Sauleskalns 01:05:06 VZ3 38 V43 +14:33 +14:33 00:01:44 776 202 978
46 Edijs Vilnis 3826 VSK Noskrien 01:05:22 VZ3 39 V44 +14:49 +14:49 00:02:01 773 174 947
47 Jānis Znotiņš 3926 Virsotne/MARMOT 01:05:44 VZ3 40 V45 +15:11 +15:11 00:01:50 769 191 960
48 Ināra Lūse 3910 Moller Auto Ventspils / MRC 01:05:52 SZ3 2 S3 +03:11 +02:02 00:02:06 952 205 1157
49 Pēteris Mednis 3107 Māras Tētis 01:06:00 VZ3 41 V46 +15:27 +15:27 00:02:11 766 160 926
50 Mārcis Ābelīte 3963 01:06:01 VZ3 42 V47 +15:28 +15:28 00:01:58 766 178 944
51 Valdis Devjatņikovs 3102 SK Katrīna 01:06:01 VZ3 43 V48 +15:28 +15:28 00:02:16 766 154 920
52 Ainis Kanaviņš 3943 SSK Bebra 01:06:07 VZ3 44 V49 +15:34 +15:34 00:01:37 765 216 981
53 Liene Blumbeka 3972 Virsotne/MARMOT 01:06:10 SZ3 3 S4 +03:29 +02:20 00:02:02 947 211 1158
54 Jānis Pauliņš 3465 01:06:16 VZ3 45 V50 +15:43 +15:43 00:01:54 763 184 947
55 Rasma Čoiča 3513 Patria Sportland 01:06:27 SZ3 4 S5 +03:46 +02:37 00:02:03 943 210 1153
56 Jānis Liepiņš 13663 SPORTLAND 01:06:29 VZ3 46 V51 +15:56 +15:56 00:01:54 760 184 944
57 Edijs Valainis 3485 Preiļu Valsts ģimnāzija / Preiļu novada BJSS 01:06:32 VZ2 7 V52 +15:59 +11:44 00:01:49 760 193 953
58 Bruno Krampe 13705 01:06:36 VZ2 8 V53 +16:03 +11:48 00:01:45 759 200 959
59 Rainers Paeglis 3143 Siguldas Sporta skola 01:06:40 VZ2 9 V54 +16:07 +11:52 00:01:46 758 198 956
60 Uldis Raipalis 3399 Gentlemen's Club 01:06:54 VZ3 47 V55 +16:21 +16:21 00:01:40 756 210 966
61 Gunārs Ozoliņš 3559 DzSK Lokomotīve 01:06:57 VZ3 48 V56 +16:24 +16:24 00:01:41 755 208 963
62 Māris Bērziņš 3848 Virsotne/MARMOT 01:07:03 VZ3 49 V57 +16:30 +16:30 00:01:37 754 216 970
63 Ričards Leimanis 3860 TRX Cēsis 01:07:16 VZ3 50 V58 +16:43 +16:43 00:01:32 751 228 979
64 Mārtiņš Purenkovs 3168 Legs Miserables 01:07:22 VZ3 51 V59 +16:49 +16:49 00:01:42 750 206 956
65 Renārs Teters-Teterovskis 3842 01:07:27 VZ3 52 V60 +16:54 +16:54 00:01:35 749 221 970
66 Marcis Gedrovics 3098 01:07:27 VZ3 53 V61 +16:54 +16:54 00:01:45 749 200 949
67 Līga Girgensone 3700 01:07:30 SZ3 5 S6 +04:49 +03:40 00:01:59 929 217 1146
68 Raivo Liepa 13721 01:07:36 VZ2 10 V62 +17:03 +12:48 00:02:02 748 172 920
69 Artis Smerliņš 3809 01:07:39 VZ3 54 V63 +17:06 +17:06 00:01:51 747 189 936
70 Dāvis Pankoks 3859 Liepājas SSS 01:08:28 VZ1 2 V64 +17:55 +04:44 00:02:24 738 146 884
71 Inga Zālīte 3725 Grauda Spēks 01:08:42 SZ3 6 S7 +06:01 +04:52 00:02:12 912 195 1107
72 Mart Kelk 13754 01:09:22 VZ3 55 V65 +18:49 +18:49 00:02:14 729 157 886
73 Romāns Kuročkins 3484 01:09:37 VZ3 56 V66 +19:04 +19:04 00:01:40 726 210 936
74 Rūdis Liepiņš 3727 Grauda Spēks 01:09:38 VZ2 11 V67 +19:05 +14:50 00:01:55 726 183 909
75 Ints Neilands 13730 Saldus Boksa Klubs 01:09:51 VZ3 57 V68 +19:18 +19:18 00:01:55 724 183 907
76 Baiba Vekša 4065 Grauda Spēks 01:09:53 SZ3 7 S8 +07:12 +06:03 00:01:42 897 253 1150
77 Silvestrs Auders 3558 DEERED 01:09:55 VZ3 58 V69 +19:22 +19:22 00:02:10 723 162 885
78 Andžejs Stenclavs 4042 #kineticsskrien 01:10:00 VZ3 59 V70 +19:27 +19:27 00:01:47 722 196 918
79 Jānis Iklāvs 3137 Latvijas skauti un gaidas 01:10:06 VZ3 60 V71 +19:33 +19:33 00:01:51 721 189 910
80 Kaspars Irbe 3772 Talsu pauguraines Zaķi 01:10:12 VZ1 3 V72 +19:39 +06:28 00:01:51 720 189 909
81 Jānis Bute 3816 01:10:29 VZ3 61 V73 +19:56 +19:56 00:01:51 717 189 906
82 Aino Gošs 3264 Maratona klubs 01:10:34 VZ3 62 V74 +20:01 +20:01 00:01:49 716 193 909
83 Jānis Rukšāns 4076 Mežā dzīvo Oļegs 01:10:35 VZ3 63 V75 +20:02 +20:02 00:02:21 716 149 865
84 Ilvars Bergmanis 3689 01:10:39 VZ3 64 V76 +20:06 +20:06 00:01:50 715 191 906
85 Kitija Zaula 3524 Limbaži 01:10:39 SZ1 1 S9 +07:58 +00:00 00:02:39 887 162 1049
86 Diāna Jakubjaņeca 13664 SPORTLAND 01:10:40 SZ3 8 S10 +07:59 +06:50 00:01:57 887 221 1108
87 Emīls Žubulis 13741 Team Kažemāka/Train2WinLv 01:10:46 VZ2 12 V77 +20:13 +15:58 00:01:19 714 266 980
88 Sandija Sorokina 3865 Maratona klubs 01:10:49 SZ2 2 S11 +08:08 +08:08 00:02:33 885 169 1054
89 Dāvis Poliņš 3310 Adidas runners | RIGA / VSK Noskrien 01:10:50 VZ3 65 V78 +20:17 +20:17 00:01:26 714 244 958
90 Atis Jansons 3471 Swedbank 01:10:51 VZ3 66 V79 +20:18 +20:18 00:02:04 713 169 882
91 Rihards Volfs 3761 RajA 01:10:59 VZ3 67 V80 +20:26 +20:26 00:01:55 712 183 895
92 Arnis Šūlmeisters 3173 01:11:07 VZ3 68 V81 +20:34 +20:34 00:02:27 711 143 854
93 Dāvis Ende 13645 Pirtslietu darbnīca 01:11:18 VZ1 4 V82 +20:45 +07:34 00:02:20 709 150 859
94 Ivars Kumpiņš 4085 01:11:25 VZ3 69 V83 +20:52 +20:52 00:02:11 708 160 868
95 Elīna Barone 3843 01:11:31 SZ3 9 S12 +08:50 +07:41 00:02:12 876 195 1071
96 Gatis Barons 3846 Kāpa OK 01:11:31 VZ3 70 V84 +20:58 +20:58 00:01:55 707 183 890
97 Toms Kalniņš 3470 01:11:43 VZ3 71 V85 +21:10 +21:10 00:01:49 705 193 898
98 Gatis Miglāns 3156 KUKURUZŅIKI 01:11:53 VZ3 72 V86 +21:20 +21:20 00:02:21 703 149 852
99 Zigmārs Mazulis 3362 01:12:02 VZ3 73 V87 +21:29 +21:29 00:02:09 702 163 865
100 Anda Zandberga 13642 Adidas Runners | Riga 01:12:03 SZ3 10 S13 +09:22 +08:13 00:01:55 870 224 1094
101 Mārtiņš Priede 15263 Lattelecom Rīgas maratons 01:12:13 VZ3 74 V88 +21:40 +21:40 00:02:09 700 163 863
102 Dace Almane 3902 Engures Sportam 01:12:17 SZ3 11 S14 +09:36 +08:27 00:01:32 867 280 1147
103 Arnis Prieditis 13746 01:12:20 VZ3 75 V89 +21:47 +21:47 00:02:16 699 154 853
104 Inga Paškovska 3139 IB SKI TEAM 01:12:23 SZ3 12 S15 +09:42 +08:33 00:02:25 866 178 1044
105 Rolands Rozitis 13747 Deered 01:12:34 VZ3 76 V90 +22:01 +22:01 00:02:24 697 146 843
106 Ingūna Gailīte 3595 SSK Bebra 01:12:35 SZ3 13 S16 +09:54 +08:45 00:01:48 864 239 1103
107 Arvīds Grāvelis 3814 DEERED 01:12:37 VZ3 77 V91 +22:04 +22:04 00:02:07 696 165 861
108 Gatis Melgalvis 3046 Valmiermuiža Cilpo 01:12:39 VZ3 78 V92 +22:06 +22:06 00:02:20 696 150 846
109 Zigmārs Kalējs 4013 Baltais 01:12:49 VZ3 79 V93 +22:16 +22:16 00:02:02 694 172 866
110 Uldis Liepa-Liepiņš 13691 01:12:56 VZ3 80 V94 +22:23 +22:23 00:02:03 693 171 864
111 Jānis Zvaigznītis 3327 SPB RUN/Asics 01:13:13 VZ3 81 V95 +22:40 +22:40 00:01:49 690 193 883
112 Sandis Sproģis 3705 Lattelecom 01:13:31 VZ3 82 V96 +22:58 +22:58 00:02:19 688 151 839
113 Mārtiņš Bodnieks 13742 01:13:54 VZ3 83 V97 +23:21 +23:21 00:01:59 684 176 860
114 Artūrs Jansons 3798 Maratona Klubs 01:13:55 VZ3 84 V98 +23:22 +23:22 00:01:49 684 193 877
115 Sandijs Suhānovs 3267 Sigulda 01:13:57 VZ2 13 V99 +23:24 +19:09 00:01:41 684 208 892
116 Piotr Hanc 13711 eFP BG LATVIA 01:13:59 VZ3 85 V100 +23:26 +23:26 00:02:22 683 148 831
117 Mārcis Strazdiņš 3300 Nacionālā Aizsardzības akadēmija 01:14:02 VZ2 14 V101 +23:29 +19:14 00:02:13 683 158 841
118 Māris Zāle 3514 01:14:09 VZ3 86 V102 +23:36 +23:36 00:02:16 682 154 836
119 Megija Stalberga 13641 VSK "Burkānciems & Co" 01:14:11 SZ2 3 S17 +11:30 +11:30 00:02:15 845 191 1036
120 Andris Žukovskis 3214 SQUAD.LV 01:14:17 VZ3 87 V103 +23:44 +23:44 00:02:25 681 145 826
121 Miks Dzenis 3344 Trīs buki 01:14:19 VZ3 88 V104 +23:46 +23:46 00:02:01 680 174 854
122 Aleksis Jarockis 3182 01:14:20 VZ3 89 V105 +23:47 +23:47 00:02:21 680 149 829
123 Elvis Bernhards 3282 AnimalPlanet 01:14:20 VZ3 90 V106 +23:47 +23:47 00:02:04 680 169 849
124 Edvīns Jaundzems 13648 SPORTLAND 01:14:21 VZ3 91 V107 +23:48 +23:48 00:02:32 680 138 818
125 Martins Podnieks 3057 Silakrogs 01:14:22 VZ3 92 V108 +23:49 +23:49 00:02:12 680 159 839
126 Sandis Breiers 4053 01:14:31 VZ3 93 V109 +23:58 +23:58 00:02:04 678 169 847
127 Artis Saurins 2135 01:14:34 VZ3 94 V110 +24:01 +24:01 00:02:24 678 146 824
128 Lauris Laumanis 3502 01:14:39 VZ3 95 V111 +24:06 +24:06 00:02:24 677 146 823
129 Ēriks Bauers 3877 01:14:40 VZ3 96 V112 +24:07 +24:07 00:02:26 677 144 821
130 Daina Jurķe 3386 01:14:46 SZ3 14 S18 +12:05 +10:56 00:02:05 838 206 1044
131 Deivids Stupiņš 3523 Nacionālā Aizsardzības akadēmija 01:14:47 VZ2 15 V113 +24:14 +19:59 00:02:32 676 138 814
132 Jānis Dūmiņš 4072 01:14:52 VZ3 97 V114 +24:19 +24:19 00:02:12 675 159 834
133 Mārtiņš Brenčs 4094 01:14:55 VZ3 98 V115 +24:22 +24:22 00:02:39 675 132 807
134 Māris Graudiņš 13722 01:14:57 VZ3 99 V116 +24:24 +24:24 00:01:48 674 194 868
135 Niks Siliņš 3518 Kača liek skriet! 01:14:59 VZ2 16 V117 +24:26 +20:11 00:01:54 674 184 858
136 Linda Meškovska 3998 Gjensidige 01:14:59 SZ3 15 S19 +12:18 +11:09 00:02:04 836 208 1044
137 Jēkabs Skolnieks 4002 Gjensidige 01:15:01 VZ1 5 V118 +24:28 +11:17 00:02:27 674 143 817
138 Ivo Pušņins 3669 01:15:06 VZ3 100 V119 +24:33 +24:33 00:02:22 673 148 821
139 Elviss Jokšs 3241 01:15:08 VZ2 17 V120 +24:35 +20:20 00:02:12 673 159 832
140 Ginta Valtere 3873 Baltais 01:15:13 SZ3 16 S20 +12:32 +11:23 00:01:50 833 235 1068
141 Eriks Bogdanovs 3366 01:15:17 VZ3 101 V121 +24:44 +24:44 00:02:18 671 152 823
142 Dāvis Zelmenis 3867 Maratona klubs 01:15:28 VZ3 102 V122 +24:55 +24:55 00:02:07 670 165 835
143 Jānis Sirmelis 3810 01:15:37 VZ3 103 V123 +25:04 +25:04 00:02:29 669 141 810
144 Māris Zicmanis 13743 01:15:39 VZ3 104 V124 +25:06 +25:06 00:02:47 668 126 794
145 Kaspars Olte 3713 01:15:40 VZ3 105 V125 +25:07 +25:07 00:02:11 668 160 828
146 Signe Vilcāne 3503 Team Kažemāka/Train2WinLV 01:15:53 SZ3 17 S21 +13:12 +12:03 00:02:40 826 161 987
147 Atis Sīlis 3596 STIGA 01:15:53 VZ3 106 V126 +25:20 +25:20 00:02:01 666 174 840
148 Māris Katkovskis 3833 KSMR Fitness 01:15:56 VZ3 107 V127 +25:23 +25:23 00:02:01 666 174 840
149 Rihards Skrastiņš 4063 EVELO TEAM 01:16:00 VZ3 108 V128 +25:27 +25:27 00:02:26 665 144 809
150 Renārs Reklaitis 3974 Exigen Services Latvia #optimized4running 01:16:01 VZ3 109 V129 +25:28 +25:28 00:02:26 665 144 809
151 Andis Meirēns 3999 Gjensidige 01:16:10 VZ3 110 V130 +25:37 +25:37 00:02:03 664 171 835
152 Jānis Andrējevs 3031 01:16:15 VZ3 111 V131 +25:42 +25:42 00:02:23 663 147 810
153 Guntis Saule 3946 Olainfarm 01:16:18 VZ3 112 V132 +25:45 +25:45 00:02:44 663 128 791
154 Mairis Apsīts 13693 01:16:19 VZ3 113 V133 +25:46 +25:46 00:02:21 662 149 811
155 Aigars Puriņš 3319 PURIŅI 01:16:19 VZ2 18 V134 +25:46 +21:31 00:02:39 662 132 794
156 Edgars Ošs 3371 01:16:25 VZ3 114 V135 +25:52 +25:52 00:02:05 662 168 830
157 Lauma Čerņevska 3937 VSK Noskrien Vāveres 01:16:25 SZ3 18 S22 +13:44 +12:35 00:02:09 820 200 1020
158 Sandis Apenītis 3719 01:16:33 VZ3 115 V136 +26:00 +26:00 00:01:49 660 193 853
159 Dainis Gailis 3155 Siguldas Maratona klubs 01:16:35 VZ3 116 V137 +26:02 +26:02 00:02:39 660 132 792
160 Ģirts Goško 4080 Piedzīvojumu meklētāji 01:16:41 VZ3 117 V138 +26:08 +26:08 00:02:34 659 136 795
161 Kaspars Briedis 3488 Saldus Boksa klubs 01:16:45 VZ3 118 V139 +26:12 +26:12 00:02:03 659 171 830
162 Normunds Stepāns 3074 STROPS Technologies 01:16:52 VZ3 119 V140 +26:19 +26:19 00:02:03 658 171 829
163 Mareks Jevtuhs 13755 SPORTLAND 01:17:00 VZ3 120 V141 +26:27 +26:27 00:01:51 656 189 845
164 Mārtiņš Spalva 3631 Swedbank 01:17:03 VZ3 121 V142 +26:30 +26:30 00:02:45 656 127 783
165 Mareks Brokāns 3500 VSK Noskrien 01:17:05 VZ3 122 V143 +26:32 +26:32 00:02:24 656 146 802
166 Edgars Fecers 13667 SPORTLAND 01:17:14 VZ2 19 V144 +26:41 +22:26 00:02:02 655 172 827
167 Sintija Langenfelde 3898 01:17:16 SZ3 19 S23 +14:35 +13:26 00:02:04 811 208 1019
168 Sandris Līdums 3987 Latvijas Finieris 01:17:22 VZ3 123 V145 +26:49 +26:49 00:02:11 653 160 813
169 Beāte Vecvagare 3154 01:17:28 SZ3 20 S24 +14:47 +13:38 00:02:52 809 150 959
170 Edgars Krastiņš 3722 01:17:30 VZ3 124 V146 +26:57 +26:57 00:02:03 652 171 823
171 Baiba Bolgzda 3775 01:17:30 SZ3 21 S25 +14:49 +13:40 00:02:15 809 191 1000
172 Žanete Leimane 3875 TRX Cēsis 01:17:36 SZ3 22 S26 +14:55 +13:46 00:02:30 808 172 980
173 Valters Babris 3056 Madona 01:17:36 VZ3 125 V147 +27:03 +27:03 00:02:25 651 145 796
174 Madara Umleja 3050 01:17:40 SZ3 23 S27 +14:59 +13:50 00:02:39 807 162 969
175 Ieva Biedrīte 4084 Grauda Spēks 01:17:52 SZ3 24 S28 +15:11 +14:02 00:02:38 805 163 968
176 Kārlis Kurtišs 3882 01:17:59 VZ3 126 V148 +27:26 +27:26 00:02:33 648 137 785
177 Viktors Malihins 3742 Infinity 01:18:02 VZ3 127 V149 +27:29 +27:29 00:01:59 648 176 824
178 Rihards Kauliņš 4019 Mazsalaca 01:18:07 VZ3 128 V150 +27:34 +27:34 00:02:41 647 130 777
179 Gunnar Koitne 3180 Eesti Eesti 01:18:14 VZ3 129 V151 +27:41 +27:41 00:02:37 646 134 780
180 Aigars Lapiņš 3765 01:18:22 VZ3 130 V152 +27:49 +27:49 00:02:27 645 143 788
181 Ints Mūrnieks 3237 01:18:30 VZ3 131 V153 +27:57 +27:57 00:02:11 644 160 804
182 Ģirts Udrass 3385 01:18:32 VZ3 132 V154 +27:59 +27:59 00:02:22 644 148 792
183 Mārtiņš Zemturis 3233 KSMR Fitness 01:18:36 VZ3 133 V155 +28:03 +28:03 00:01:13 643 288 931
184 Artūrs Čeirāns 13717 01:18:40 VZ3 134 V156 +28:07 +28:07 00:02:01 643 174 817
185 Evita Hibšmane 3509 01:18:40 SZ3 25 S29 +15:59 +14:50 00:02:06 797 205 1002
186 Oskars Zviedris 3196 01:18:42 VZ3 135 V157 +28:09 +28:09 00:01:57 642 179 821
187 Sindija Zaula 3377 Limbažu un Salacgrīvas sporta skola 01:18:44 SZ2 4 S30 +16:03 +16:03 00:02:05 796 206 1002
188 Samanta Krampe 13704 01:18:45 SZ2 5 S31 +16:04 +16:04 00:02:26 796 177 973
189 Edgars Bole 3468 01:18:46 VZ3 136 V158 +28:13 +28:13 00:02:21 642 149 791
190 Sindijs Logins 3335 01:18:49 VZ3 137 V159 +28:16 +28:16 00:02:42 641 130 771
191 Ervīns Lūsis 3341 01:18:52 VZ3 138 V160 +28:19 +28:19 00:02:32 641 138 779
192 Jurijs Gammeršmidts 3717 ZAS Pārgauja 01:18:54 VZ3 139 V161 +28:21 +28:21 00:02:38 641 133 774
193 Dainis Hohbergs 3612 Latvijas Finieris 01:18:58 VZ3 140 V162 +28:25 +28:25 00:02:10 640 162 802
194 Rihards Hohbergs 3726 01:18:58 VZ2 20 V163 +28:25 +24:10 00:02:10 640 162 802
195 Māris Reiniks 3254 01:18:59 VZ3 141 V164 +28:26 +28:26 00:01:58 640 178 818
196 Jānis Ontužāns 13573 01:19:02 VZ3 142 V165 +28:29 +28:29 00:02:19 640 151 791
197 Armands Krampe 13706 01:19:05 VZ3 143 V166 +28:32 +28:32 00:02:10 639 162 801
198 Jānis Lakovics 13737 01:19:29 VZ3 144 V167 +28:56 +28:56 00:01:52 636 188 824
199 Sanda Terela 3464 01:19:32 SZ3 26 S32 +16:51 +15:42 00:02:39 788 162 950
200 Tomass Mazurs 3331 01:19:40 VZ1 6 V168 +29:07 +15:56 00:02:37 635 134 769
201 Līga Kaspare 3141 01:19:41 SZ3 27 S33 +17:00 +15:51 00:02:34 787 168 955
202 Edgars Bērziņš 3109 MTB Talsi 01:19:41 VZ3 145 V169 +29:08 +29:08 00:01:57 634 179 813
203 Kārlis Vancovičs 3349 HK Patrioti 01:19:48 VZ2 21 V170 +29:15 +25:00 00:02:40 633 131 764
204 Ilze Leščinska 3884 Zoorbagan 01:19:49 SZ3 28 S34 +17:08 +15:59 00:02:47 785 154 939
205 Dace Jukuma 3253 01:19:51 SZ3 29 S35 +17:10 +16:01 00:02:30 785 172 957
206 Kaspars Aksenoks 3328 CSDD 01:19:58 VZ3 146 V171 +29:25 +29:25 00:02:15 632 156 788
207 Oskars Pugačs 13660 SPORTLAND 01:20:01 VZ3 147 V172 +29:28 +29:28 00:02:10 632 162 794
208 Mārtiņš Bitenieks 3569 Līgatne 01:20:04 VZ3 148 V173 +29:31 +29:31 00:02:18 631 152 783
209 Deniss Petrenko 3829 DION SPORTLAB 01:20:04 VZ3 149 V174 +29:31 +29:31 00:02:03 631 171 802
210 Agate Priedīte 3986 Latvijas Finieris 01:20:04 SZ1 2 S36 +17:23 +09:25 00:02:29 783 173 956
211 Rihards Čaiba 3208 01:20:05 VZ3 150 V175 +29:32 +29:32 00:02:11 631 160 791
212 Gints Putniņš 3474 01:20:06 VZ3 151 V176 +29:33 +29:33 00:01:45 631 200 831
213 Ieva Freidenfelde 3230 01:20:07 SZ3 30 S37 +17:26 +16:17 00:02:28 782 174 956
214 Līga Norkus 3338 Saldus Boksa klubs 01:20:08 SZ3 31 S38 +17:27 +16:18 00:02:12 782 195 977
215 Uldis Doniņš 3528 Moller Auto Ventspils / MRC 01:20:09 VZ3 152 V177 +29:36 +29:36 00:02:09 631 163 794
216 Džanita Freija 3685 Moller Auto Ventspils / MRC 01:20:13 SZ3 32 S39 +17:32 +16:23 00:02:16 781 190 971
217 Ivita Šale 3891 SSK Bebra 01:20:17 SZ3 33 S40 +17:36 +16:27 00:02:12 781 195 976
218 Juris Šķudītis 3984 Latvijas Finieris 01:20:23 VZ3 153 V178 +29:50 +29:50 00:02:25 629 145 774
219 Raitis Vilsdorfs 3136 01:20:26 VZ3 154 V179 +29:53 +29:53 00:02:40 628 131 759
220 Kaspars Daube 3439 01:20:37 VZ3 155 V180 +30:04 +30:04 00:02:31 627 139 766
221 Igors Zinkevičs 13725 01:20:39 VZ3 156 V181 +30:06 +30:06 00:02:15 627 156 783
222 Jānis Skolnieks 4003 Gjensidige 01:20:42 VZ3 157 V182 +30:09 +30:09 00:02:24 626 146 772
223 Bartosz Żelazny 13712 eFP BG LATVIA 01:20:48 VZ3 158 V183 +30:15 +30:15 00:01:58 626 178 804
224 Aigars Bergs 13720 01:20:49 VZ3 159 V184 +30:16 +30:16 00:02:51 625 123 748
225 Guntis Zvilna 3626 Biznesa parks ABAVA 01:20:51 VZ3 160 V185 +30:18 +30:18 00:02:22 625 148 773
226 Jēkabs Ločmelis 13640 VSK "Burkānciems & Co" 01:20:51 VZ2 22 V186 +30:18 +26:03 00:03:04 625 114 739
227 Normunds Grava 3583 01:20:52 VZ3 161 V187 +30:19 +30:19 00:02:11 625 160 785
228 Jānis Bāča 3177 01:20:56 VZ3 162 V188 +30:23 +30:23 00:02:06 625 167 792
229 Māris Bumbieris 3632 Latvijas Finieris 01:21:10 VZ3 163 V189 +30:37 +30:37 00:02:15 623 156 779
230 Uldis Salna 3434 01:21:13 VZ3 164 V190 +30:40 +30:40 00:01:54 622 184 806
231 Evija Līviņa 3654 Luminor 01:21:15 SZ3 34 S41 +18:34 +17:25 00:02:23 771 180 951
232 Gita Vilensone 3916 Vsk Noskrien Vāveres 01:21:18 SZ3 35 S42 +18:37 +17:28 00:02:04 771 208 979
233 Gatis Čirka 3901 01:21:19 VZ3 165 V191 +30:46 +30:46 00:02:30 622 140 762
234 Osmandas Daugele 13757 01:21:23 VZ3 166 V192 +30:50 +30:50 00:02:22 621 148 769
235 Madara Ozola 3537 Saldus Boksa klubs 01:21:26 SZ3 36 S43 +18:45 +17:36 00:02:23 770 180 950
236 Normunds Leiņa 3455 Ozons 01:21:27 VZ3 167 V193 +30:54 +30:54 00:02:16 621 154 775
237 Armands Kerijs 3985 Latvijas Finieris 01:21:29 VZ3 168 V194 +30:56 +30:56 00:02:23 620 147 767
238 Madara Elksne 3318 Cipariņi 01:21:34 SZ3 37 S44 +18:53 +17:44 00:02:24 768 179 947
239 Dmitrijs Šarovs 4089 Eži 01:21:35 VZ3 169 V195 +31:02 +31:02 00:02:35 620 135 755
240 Dins Jakuška 3549 BAUERFEIND 01:21:37 VZ3 170 V196 +31:04 +31:04 00:02:12 619 159 778
241 Ivars Tolmanis 3622 APES DRAUGU KOPA 01:21:43 VZ3 171 V197 +31:10 +31:10 00:02:34 619 136 755
242 Jānis Tauberis 3781 01:21:50 VZ2 23 V198 +31:17 +27:02 00:02:32 618 138 756
243 Lauris Kindzulis 3069 Luminor 01:21:50 VZ3 172 V199 +31:17 +31:17 00:02:33 618 137 755
244 Normunds Freimanis 3308 01:21:52 VZ3 173 V200 +31:19 +31:19 00:02:05 617 168 785
245 Adam Lazarczyk 4028 eFP BG LATVIA 01:21:55 VZ3 174 V201 +31:22 +31:22 00:02:57 617 119 736
246 Guntis Kanaviņš 3774 SSK Bebra 01:22:02 VZ3 175 V202 +31:29 +31:29 00:02:13 616 158 774
247 Didzis Skārds 3607 Olainfarm 01:22:02 VZ3 176 V203 +31:29 +31:29 00:02:30 616 140 756
248 Kristaps Pugačs 13659 SPORTLAND 01:22:03 VZ3 177 V204 +31:30 +31:30 00:02:01 616 174 790
249 Viesturs Eglītis 13735 A2 Jaunpiebalga 01:22:09 VZ2 24 V205 +31:36 +27:21 00:01:10 615 300 915
250 Ints Radziņš 3436 01:22:09 VZ3 178 V206 +31:36 +31:36 00:02:33 615 137 752
251 Atis Poga 3701 01:22:10 VZ3 179 V207 +31:37 +31:37 00:01:58 615 178 793
252 Matīss Saulītis 3878 01:22:13 VZ3 180 V208 +31:40 +31:40 00:02:54 615 121 736
253 Edgars Šneps 13708 Latvijas Basketbola savienība 01:22:14 VZ3 181 V209 +31:41 +31:41 00:02:25 615 145 760
254 Viesturs Bratuskins 3217 VAS Latvijas Gaisa Satiksme 01:22:14 VZ3 182 V210 +31:41 +31:41 00:02:14 615 157 772
255 Irēna Gedroviča 3955 Jaunmārupe skrien! / VSK Noskrien 01:22:15 SZ3 38 S45 +19:34 +18:25 00:02:40 762 161 923
256 Toms Ķikusts 3928 Ziemeļu ļaudis 01:22:20 VZ3 183 V211 +31:47 +31:47 00:02:31 614 139 753
257 Edgars Beļavskis 3438 01:22:23 VZ3 184 V212 +31:50 +31:50 00:02:18 614 152 766
258 Kristers Miķis 3574 01:22:23 VZ1 7 V213 +31:50 +18:39 00:02:36 614 135 749
259 Aleksejs Mescerjakovs 4016 Wild Gang 01:22:26 VZ3 185 V214 +31:53 +31:53 00:01:48 613 194 807
260 Natālija Rižka 4015 Wild Gang 01:22:26 SZ3 39 S46 +19:45 +18:36 00:02:40 760 161 921
261 Andris Mačevskis 3454 01:22:31 VZ3 186 V215 +31:58 +31:58 00:02:31 613 139 752
262 Māris Logins 13744 01:22:34 VZ3 187 V216 +32:01 +32:01 00:02:13 612 158 770
263 Lauris Balgalvis 3115 01:22:36 VZ3 188 V217 +32:03 +32:03 00:02:36 612 135 747
264 Alfrēds Radvils 3728 Radvils 01:22:36 VZ3 189 V218 +32:03 +32:03 00:02:49 612 124 736
265 Oskars Melecis 13736 01:22:39 VZ3 190 V219 +32:06 +32:06 00:02:46 612 127 739
266 Olafs Smiltnieks 3952 Olainfarm 01:22:46 VZ3 191 V220 +32:13 +32:13 00:02:19 611 151 762
267 Jānis Rāzna 3849 SSK Bebra 01:22:58 VZ3 192 V221 +32:25 +32:25 00:02:34 609 136 745
268 Mārtiņš Vilemsons 3887 VSK Noskrien Seniori 01:22:58 VZ3 193 V222 +32:25 +32:25 00:02:30 609 140 749
269 Zane Kaspere 3121 01:23:00 SZ3 40 S47 +20:19 +19:10 00:02:27 755 176 931
270 Agnis Dadzis 3923 01:23:08 VZ3 194 V223 +32:35 +32:35 00:02:02 608 172 780
271 Ivars Eglītis 3357 01:23:13 VZ3 195 V224 +32:40 +32:40 00:02:10 607 162 769
272 Māris Zudrags 4091 01:23:19 VZ3 196 V225 +32:46 +32:46 00:02:59 607 117 724
273 Ilze Urtāne 3160 01:23:23 SZ2 6 S48 +20:42 +20:42 00:02:13 752 194 946
274 Toms Robats 3194 01:23:26 VZ2 25 V226 +32:53 +28:38 00:02:39 606 132 738
275 Jānis Neimanis 13749 Engures sportam 01:23:26 VZ3 197 V227 +32:53 +32:53 00:01:57 606 179 785
276 Normunds Aišpurs 3372 01:23:30 VZ3 198 V228 +32:57 +32:57 00:02:23 605 147 752
277 Adam Lambrou 3548 01:23:35 VZ3 199 V229 +33:02 +33:02 00:02:38 605 133 738
278 Karol Boruta 4026 eFP BG LATVIA 01:23:39 VZ3 200 V230 +33:06 +33:06 00:02:41 604 130 734
279 Oskars Martuzāns 3837 AkmensDizains.lv 01:23:40 VZ3 201 V231 +33:07 +33:07 00:01:48 604 194 798
280 Olga Daņilova 3555 Baldones skriešanas komanda 01:23:41 SZ3 41 S49 +21:00 +19:51 00:02:34 749 168 917
281 Edgars Paegle 3053 01:23:41 VZ3 202 V232 +33:08 +33:08 00:02:17 604 153 757
282 Gaitis Rūdulis 3430 Rūdulīši :-) 01:23:44 VZ3 203 V233 +33:11 +33:11 00:02:44 604 128 732
283 Jānis Stūrītis 3034 01:23:58 VZ3 204 V234 +33:25 +33:25 00:03:18 602 106 708
284 Mārcis Ruks 3409 01:23:58 VZ2 26 V235 +33:25 +29:10 00:02:28 602 142 744
285 Jurģis Kļavpurs 3947 VSK Noskrien 01:23:58 VZ3 205 V236 +33:25 +33:25 00:01:58 602 178 780
286 Jānis Zālītis 3547 01:24:05 VZ3 206 V237 +33:32 +33:32 00:02:19 601 151 752
287 Artūrs Strēlnieks 3813 01:24:06 VZ3 207 V238 +33:33 +33:33 00:02:52 601 122 723
288 Agnese Ulanova 13681 Pūre 01:24:10 SZ3 42 S50 +21:29 +20:20 745 0 745
289 Mārtinš Umlejs 3049 01:24:10 VZ3 208 V239 +33:37 +33:37 00:02:14 601 157 758
290 Miķelis Vindavs 13763 Tikai ciešanas 01:24:13 VZ3 209 V240 +33:40 +33:40 00:02:45 600 127 727
291 Eliass Veigurs 3661 Luminor 01:24:14 VZ2 27 V241 +33:41 +29:26 00:02:05 600 168 768
292 Didzis Galauliņš 3456 Es un es pats 01:24:15 VZ3 210 V242 +33:42 +33:42 00:02:21 600 149 749
293 Viesturs Puriņš 3856 01:24:16 VZ3 211 V243 +33:43 +33:43 00:02:43 600 129 729
294 Kristaps Sirmais 3113 Guddžobs Guddans 01:24:18 VZ3 212 V244 +33:45 +33:45 00:02:11 600 160 760
295 Mareks Bokta 3256 01:24:23 VZ3 213 V245 +33:50 +33:50 00:02:33 599 137 736
296 Dace Nikolajeva 3584 01:24:26 SZ3 43 S51 +21:45 +20:36 00:02:42 742 159 901
297 Ilze Zavicka 3140 Siguldas maratona klubs 01:24:33 SZ3 44 S52 +21:52 +20:43 00:02:41 741 160 901
298 Mārtiņš Sebris 3562 01:24:35 VZ3 214 V246 +34:02 +34:02 00:02:02 598 172 770
299 Zanda Mihailova 3105 01:24:35 SZ3 45 S53 +21:54 +20:45 00:02:49 741 153 894
300 Mārtiņs Naudiņš 3602 01:24:36 VZ3 215 V247 +34:03 +34:03 00:02:19 598 151 749
301 Varis Veipāns 3227 01:24:38 VZ3 216 V248 +34:05 +34:05 00:02:45 597 127 724
302 Rinalds Gronskis 3429 Engures Sportam 01:24:45 VZ3 217 V249 +34:12 +34:12 00:02:43 596 129 725
303 Edgars Pilāts 4050 Gjensidige 01:24:49 VZ3 218 V250 +34:16 +34:16 00:02:29 596 141 737
304 Aivars Mozulis 3903 Engures sportam 01:24:52 VZ3 219 V251 +34:19 +34:19 00:01:58 596 178 774
305 Iveta Leja 3858 VSK Noskrien 01:24:53 SZ3 46 S54 +22:12 +21:03 00:02:29 738 173 911
306 Andris Malahovskis 4077 DzSK Lokomotīve 01:24:54 VZ3 220 V252 +34:21 +34:21 00:02:07 595 165 760
307 Gints Lejasmeiers 3851 Matisons Runner`s Club 01:24:55 VZ3 221 V253 +34:22 +34:22 00:02:23 595 147 742
308 Iveta Bērziņa 3374 adidas Runners I RIGA 01:25:03 SZ3 47 S55 +22:22 +21:13 00:02:44 737 157 894
309 Evita Ruskova 4024 VSK Noskrien 01:25:03 SZ3 48 S56 +22:22 +21:13 00:02:07 737 203 940
310 Arnis Kārkliņš 3337 01:25:09 VZ3 222 V254 +34:36 +34:36 00:02:18 594 152 746
311 Māris Bērziņš 13656 SPORTLAND 01:25:17 VZ3 223 V255 +34:44 +34:44 00:02:34 593 136 729
312 Miks Locis 3699 Lynxdojo 01:25:30 VZ3 224 V256 +34:57 +34:57 00:02:45 591 127 718
313 Nils Eduards Jakobsons 3670 Lynxdojo 01:25:30 VZ2 28 V257 +34:57 +30:42 00:02:45 591 127 718
314 Ilga Ozoliņa 3305 DNB Service Center 01:25:31 SZ3 49 S57 +22:50 +21:41 00:02:01 733 213 946
315 Uldis Kleinbergs 3083 Ko Te Notiek? 01:25:40 VZ3 225 V258 +35:07 +35:07 00:02:21 590 149 739
316 Niks Jaunzems 4017 Resnie 01:25:52 VZ3 226 V259 +35:19 +35:19 00:02:41 589 130 719
317 Patriks Stērninieks 3380 HCP 01:25:53 VZ2 29 V260 +35:20 +31:05 00:02:35 589 135 724
318 Lelde Broka 3636 VSK Noskrien Vāveres 01:25:54 SZ3 50 S58 +23:13 +22:04 00:02:14 730 193 923
319 Anna Zara 3481 Nacionālā Aizsardzības Akadēmija 01:25:54 SZ2 7 S59 +23:13 +23:13 00:02:41 730 160 890
320 Māris Krūze 3839 Apes draugu grupa 01:25:56 VZ3 227 V261 +35:23 +35:23 00:03:07 588 112 700
321 Donats Urtāns 4036 Lūša pēdās 01:26:00 VZ1 8 V262 +35:27 +22:16 00:02:26 588 144 732
322 Reinis Ūdris 3085 01:26:04 VZ3 228 V263 +35:31 +35:31 00:02:17 587 153 740
323 Mārcis Vītoliņš 3210 Kociņi 01:26:06 VZ1 9 V264 +35:33 +22:22 00:03:04 587 114 701
324 Aigars Zumbergs 4018 Efectio 01:26:07 VZ3 229 V265 +35:34 +35:34 00:01:56 587 181 768
325 Kaspars Rullis 3311 01:26:08 VZ3 230 V266 +35:35 +35:35 00:02:40 587 131 718
326 Iveta Šķiņķe 3212 adidas Runners | Riga 01:26:10 SZ3 51 S60 +23:29 +22:20 00:02:53 727 149 876
327 Jānis Zāle 3506 EY 01:26:16 VZ3 231 V267 +35:43 +35:43 00:02:44 586 128 714
328 Aigars Rēze 3416 Limbaži 01:26:21 VZ3 232 V268 +35:48 +35:48 00:02:55 585 120 705
329 Dace Pauriņa 3172 Izturība 01:26:22 SZ3 52 S61 +23:41 +22:32 00:02:11 726 197 923
330 Juris Kārkliņš 4057 Dobeles Dzirnavnieks 01:26:27 VZ3 233 V269 +35:54 +35:54 00:02:27 585 143 728
331 Agnese Katlapa 3249 Studenšu korporācija Imeria 01:26:28 SZ3 53 S62 +23:47 +22:38 00:02:43 725 158 883
332 Raitis Puriņš 3908 VSK Noskrien/Zemgales Ziņas 01:26:29 VZ3 234 V270 +35:56 +35:56 00:02:31 585 139 724
333 Kristaps Ķemme 4011 DPD Latvija 01:26:33 VZ3 235 V271 +36:00 +36:00 00:01:49 584 193 777
334 Cody Crosson 4052 eFP Latvia 01:26:34 VZ3 236 V272 +36:01 +36:01 00:02:26 584 144 728
335 Uģis Dreimanis 3099 01:26:37 VZ3 237 V273 +36:04 +36:04 00:02:39 584 132 716
336 Evija Abiļeva 3334 Swedbank 01:26:37 SZ3 54 S63 +23:56 +22:47 00:02:15 724 191 915
337 Emīls Liepiņš 3599 Venden 01:26:40 VZ2 30 V274 +36:07 +31:52 00:02:25 583 145 728
338 Ieva Ločmele 3116 01:26:42 SZ3 55 S64 +24:01 +22:52 00:02:33 723 169 892
339 Pēteris Bērziņš 3597 01:26:48 VZ3 238 V275 +36:15 +36:15 00:02:40 582 131 713
340 Vladislavs Petičonoks 3949 Olainfarm 01:26:55 VZ3 239 V276 +36:22 +36:22 00:02:49 582 124 706
341 Rūdolfs Abiļevs 3333 New Village Workout 01:26:55 VZ3 240 V277 +36:22 +36:22 00:02:18 582 152 734
342 Dzintra Kārkliņa 3248 01:26:55 SZ3 56 S65 +24:14 +23:05 00:02:42 721 159 880
343 Egīls Ziediņš 3893 01:26:58 VZ2 31 V278 +36:25 +32:10 00:01:19 581 266 847
344 Diāna Elizabete Daukšte 3543 01:27:00 SZ1 3 S66 +24:19 +16:21 00:02:20 720 184 904
345 Rūdolfs Heinrihs Daukšte 3544 01:27:05 VZ1 10 V279 +36:32 +23:21 00:02:41 580 130 710
346 Gatis Molodcovs 3603 01:27:15 VZ3 241 V280 +36:42 +36:42 00:02:17 579 153 732
347 Amanda Ciguze 3187 01:27:16 SZ2 8 S67 +24:35 +24:35 00:02:55 718 147 865
348 Zane Priede 13753 SIMBA TEAM 01:27:16 SZ3 57 S68 +24:35 +23:26 00:02:36 718 165 883
349 Jānis Šliseris 3683 01:27:16 VZ3 242 V281 +36:43 +36:43 00:02:05 579 168 747
350 Vineta Sudmale 3370 - 01:27:18 SZ3 58 S69 +24:37 +23:28 00:02:56 718 147 865
351 Dāvis Fricbergs 3418 adidas Runners Riga 01:27:19 VZ2 32 V282 +36:46 +32:31 00:01:56 579 181 760
352 Baiba Zvirbule 13762 01:27:20 SZ3 59 S70 +24:39 +23:30 00:02:57 718 146 864
353 Katrīna Erne 3166 Rīgas6.vidusskola 01:27:25 SZ2 9 S71 +24:44 +24:44 00:02:54 717 148 865
354 Valerijs Bairaševskis 3435 SK Tērauds 01:27:28 VZ3 243 V283 +36:55 +36:55 00:02:18 578 152 730
355 Kristīne Urtāne 3159 01:27:30 SZ3 60 S72 +24:49 +23:40 00:02:37 716 164 880
356 Krista Sudāre 3240 01:27:37 SZ3 61 S73 +24:56 +23:47 00:03:09 715 137 852
357 Toms Cēsnieks 3032 Bite Latvija 01:27:42 VZ3 244 V284 +37:09 +37:09 00:02:02 576 172 748
358 Kristaps Sondors 3161 01:27:47 VZ3 245 V285 +37:14 +37:14 00:02:07 576 165 741
359 Dārta Otomere 3452 01:27:53 SZ3 62 S74 +25:12 +24:03 00:02:54 713 148 861
360 Sabīne Metāla 3346 01:28:03 SZ3 63 S75 +25:22 +24:13 00:02:39 712 162 874
361 Renārs Reiniks 3304 01:28:03 VZ3 246 V286 +37:30 +37:30 00:02:47 574 126 700
362 Raivis Ķergalvis 3697 01:28:04 VZ3 247 V287 +37:31 +37:31 00:02:26 574 144 718
363 Andris Riekstiņš 3390 01:28:06 VZ3 248 V288 +37:33 +37:33 00:03:08 574 112 686
364 Santa Žukovska 3857 01:28:07 SZ3 64 S76 +25:26 +24:17 00:02:31 711 171 882
365 Egils Lejaskrauklis 3777 01:28:15 VZ3 249 V289 +37:42 +37:42 00:02:13 573 158 731
366 Inigo Torre 13726 01:28:16 VZ3 250 V290 +37:43 +37:43 00:02:53 573 121 694
367 Dzintars Strads 13690 nothing.lv 01:28:17 VZ3 251 V291 +37:44 +37:44 00:02:43 573 129 702
368 Roberts Ivzāns 3801 Ogre 01:28:18 VZ3 252 V292 +37:45 +37:45 00:01:46 572 198 770
369 Sandra Gaile 4023 Izturība 01:28:18 SZ3 65 S77 +25:37 +24:28 00:02:55 710 147 857
370 Miroslav Barancik 4031 eFP Latvia 01:28:20 VZ3 253 V293 +37:47 +37:47 00:02:37 572 134 706
371 Aija Rogāle 4098 KROKUS 01:28:20 SZ3 66 S78 +25:39 +24:30 00:02:39 710 162 872
372 Jeļena Mironova 3874 Baltais 01:28:22 SZ3 67 S79 +25:41 +24:32 00:02:24 709 179 888
373 Juris Gaidelis 3351 Maratona klubs 01:28:25 VZ3 254 V294 +37:52 +37:52 00:02:39 572 132 704
374 Kristīne Balanasa 3479 Virsotne/MARMOT 01:28:26 SZ3 68 S80 +25:45 +24:36 00:02:40 709 161 870
375 Dārta Konošonoka 3184 Limbaži SKRIEN 01:28:28 SZ3 69 S81 +25:47 +24:38 00:02:59 709 144 853
376 Nora Baranovska 3108 01:28:32 SZ3 70 S82 +25:51 +24:42 00:02:58 708 145 853
377 Tomass Reinis Tīss 4079 01:28:35 VZ2 33 V295 +38:02 +33:47 00:02:03 571 171 742
378 Peter Fidrik 4030 eFP Latvia 01:28:36 VZ3 255 V296 +38:03 +38:03 00:02:55 571 120 691
379 Leons Cīrulis 3417 01:28:38 VZ3 256 V297 +38:05 +38:05 00:02:37 570 134 704
380 Teodor Petrík 4029 eFP Latvia 01:28:43 VZ3 257 V298 +38:10 +38:10 00:03:05 570 114 684
381 Dāvis Stade 3641 FINN CRISP 01:28:47 VZ3 258 V299 +38:14 +38:14 00:02:39 569 132 701
382 Agnese Strazdina- Jaunzema 3298 Resnie 01:28:52 SZ3 71 S83 +26:11 +25:02 00:02:58 705 145 850
383 Jānis Dubovičs 3084 Tomāti 01:28:55 VZ3 259 V300 +38:22 +38:22 00:02:07 569 165 734
384 Romāns Zatermanis 13770 Benārs un Pivārs juriskonsults 01:28:55 VZ3 260 V301 +38:22 +38:22 00:02:30 569 140 709
385 Edgars Briedis 4090 Saldus Boksa klubs 01:29:00 VZ3 261 V302 +38:27 +38:27 00:02:26 568 144 712
386 Laura Dzepuka 1603 Zemgales Ziņas 01:29:01 SZ2 10 S84 +26:20 +26:20 00:02:26 704 177 881
387 Liene Labsvīra 3995 Siguldas Maratona klubs 01:29:03 SZ3 72 S85 +26:22 +25:13 00:02:44 704 157 861
388 Līga Brutāne 3412 Swedbank 01:29:03 SZ3 73 S86 +26:22 +25:13 00:02:53 704 149 853
389 Ieva Lorence 3550 01:29:05 SZ3 74 S87 +26:24 +25:15 00:02:44 704 157 861
390 Jānis Labsvīrs 3729 Siguldas Maratona klubs 01:29:15 VZ3 262 V303 +38:42 +38:42 00:02:19 566 151 717
391 Dairis Bodnieks 3420 01:29:19 VZ3 263 V304 +38:46 +38:46 00:02:48 566 125 691
392 Aleksis Orlovs 4097 01:29:20 VZ3 264 V305 +38:47 +38:47 00:02:10 566 162 728
393 Aivars Ulanovs 13692 01:29:23 VZ3 265 V306 +38:50 +38:50 566 0 566
394 Normunds Liepiņš 3598 Venden 01:29:25 VZ3 266 V307 +38:52 +38:52 00:02:23 565 147 712
395 Aija Druvkalne 4051 01:29:26 SZ3 75 S88 +26:45 +25:36 00:03:13 701 134 835
396 Agnese Kokoreviča 13689 MADONA 01:29:29 SZ3 76 S89 +26:48 +25:39 00:02:11 701 197 898
397 Martins Jansons 3879 01:29:30 VZ3 267 V308 +38:57 +38:57 00:02:17 565 153 718
398 Ivo Grandāns 3690 Sauleskalns / SIA"Firma L4" 01:29:31 VZ3 268 V309 +38:58 +38:58 00:01:33 565 226 791
399 Līga Rone 3354 01:29:32 SZ3 77 S90 +26:51 +25:42 00:03:02 700 142 842
400 Edgars Bērziņš 3451 01:29:32 VZ3 269 V310 +38:59 +38:59 00:02:57 565 119 684
401 Kristīne Jaudzema 3408 01:29:36 SZ3 78 S91 +26:55 +25:46 00:02:46 700 155 855
402 Mārcis Kārkliņš 3426 Sasodīti labs Grāmatvedis! 01:29:36 VZ3 270 V311 +39:03 +39:03 00:02:13 564 158 722
403 Raivo Pienis 3507 PATRIA SPORTLAND 01:29:37 VZ3 271 V312 +39:04 +39:04 00:02:15 564 156 720
404 Andis Romanovs 3591 Selga 01:29:38 VZ2 34 V313 +39:05 +34:50 00:02:17 564 153 717
405 Elīna Reire 3739 01:29:38 SZ2 11 S92 +26:57 +26:57 00:02:58 699 145 844
406 Andris Aunkrogers 13723 SPB RUN/Asics 01:29:39 VZ3 272 V314 +39:06 +39:06 00:02:02 564 172 736
407 Uģis Šņigirovs 3202 01:29:44 VZ3 273 V315 +39:11 +39:11 00:02:36 563 135 698
408 Dans Buhrots 3261 01:29:55 VZ2 35 V316 +39:22 +35:07 00:03:21 562 104 666
409 Aldis Voitenko 3175 01:29:58 VZ3 274 V317 +39:25 +39:25 00:02:54 562 121 683
410 Kārlis Mičulis 3445 01:30:00 VZ3 275 V318 +39:27 +39:27 00:02:34 562 136 698
411 Līga Cebule 3956 EY 01:30:02 SZ3 79 S93 +27:21 +26:12 00:02:08 696 202 898
412 Silvija Veide 3117 DC VECSALACAS UNITED 01:30:10 SZ3 80 S94 +27:29 +26:20 00:02:30 695 172 867
413 Rita Saulīte 3914 Riga Adventure Team 01:30:13 SZ3 81 S95 +27:32 +26:23 00:02:45 695 156 851
414 Edgars Bikse 3505 Latvijas Finieris 01:30:18 VZ3 276 V319 +39:45 +39:45 00:02:09 560 163 723
415 Kristīne Rūja 3363 Team Kažemāka/Train2WinLv 01:30:20 SZ3 82 S96 +27:39 +26:30 00:02:37 694 164 858
416 Jānis Orinskis 3092 01:30:21 VZ3 277 V320 +39:48 +39:48 00:02:47 559 126 685
417 Kristaps Cīpols 13644 01:30:22 VZ3 278 V321 +39:49 +39:49 00:03:16 559 107 666
418 Patrīcija Keita Krumberga 3460 Līkā kalna rambātāji 01:30:24 SZ2 12 S97 +27:43 +27:43 00:02:45 693 156 849
419 Elīna Dzalbe 3397 Saldus Boksa klubs 01:30:29 SZ3 83 S98 +27:48 +26:39 00:02:44 693 157 850
420 Ēriks Ozols 13750 01:30:31 VZ3 279 V322 +39:58 +39:58 00:02:45 558 127 685
421 Andis Brigmanis-Briģis 13677 Sanderu klans 01:30:32 VZ3 280 V323 +39:59 +39:59 00:02:14 558 157 715
422 Andris Pikšens 3244 Zii team 01:30:33 VZ3 281 V324 +40:00 +40:00 00:02:35 558 135 693
423 Pavels Gognidze 3356 Zoorbagan 01:30:38 VZ3 282 V325 +40:05 +40:05 00:02:39 558 132 690
424 Dainis Čudars 3307 Upes vēji 01:30:47 VZ3 283 V326 +40:14 +40:14 00:02:49 557 124 681
425 Ralfs Sirmelis 3808 01:30:52 VZ1 11 V327 +40:19 +27:08 00:02:53 556 121 677
426 Kārlis Dorbe 13727 01:30:58 VZ3 284 V328 +40:25 +40:25 00:02:48 556 125 681
427 Inese Macuka 3938 Lūša pēdās 01:30:59 SZ3 84 S99 +28:18 +27:09 00:02:49 689 153 842
428 Žanis Gauja 3969 01:31:04 VZ3 285 V329 +40:31 +40:31 00:02:30 555 140 695
429 Rinalds Aļeksjonoks 3494 01:31:06 VZ3 286 V330 +40:33 +40:33 00:03:02 555 115 670
430 Aleksejs Titovičs 3906 01:31:08 VZ3 287 V331 +40:35 +40:35 00:02:47 555 126 681
431 Krista Kupča 3055 Madona 01:31:14 SZ3 85 S100 +28:33 +27:24 00:03:04 687 140 827
432 Normunds Davidčuks 4038 LIMBAŽI SKRIEN! 01:31:17 VZ3 288 V332 +40:44 +40:44 00:02:00 554 175 729
433 Valdis Sirsniņš 3568 Jaunmārupe 01:31:18 VZ3 289 V333 +40:45 +40:45 00:02:50 554 124 678
434 Ilze Orinska 3091 01:31:24 SZ3 86 S101 +28:43 +27:34 00:02:53 686 149 835
435 Indulis Tilgass 4010 DPD Latvija 01:31:26 VZ3 290 V334 +40:53 +40:53 00:02:31 553 139 692
436 Janeks Briedis 3089 01:31:28 VZ3 291 V335 +40:55 +40:55 00:03:05 553 114 667
437 Igors Mahmudovs 3336 HAVI Logistics 01:31:28 VZ3 292 V336 +40:55 +40:55 00:02:20 553 150 703
438 Jānis Sēkliņš 3393 01:31:29 VZ3 293 V337 +40:56 +40:56 00:02:44 553 128 681
439 Edmunds Garančs 3517 Lattelecom 01:31:31 VZ3 294 V338 +40:58 +40:58 00:02:54 552 121 673
440 Reinis Eglītis 3167 MIAMI 01:31:32 VZ3 295 V339 +40:59 +40:59 00:02:32 552 138 690
441 Rūdolfs Bondars 3219 01:31:35 VZ3 296 V340 +41:02 +41:02 00:02:49 552 124 676
442 Kristīne Mergina 3628 01:31:41 SZ3 87 S102 +29:00 +27:51 00:02:52 684 150 834
443 Andris Lanka 3131 TRX Cēsis 01:31:42 VZ3 297 V341 +41:09 +41:09 00:02:16 551 154 705
444 Andris Robalds 13696 Kocēnu novads 01:31:43 VZ2 36 V342 +41:10 +36:55 00:01:49 551 193 744
445 Laila Slaide 3989 Baldones Lauvas 01:31:44 SZ1 4 S103 +29:03 +21:05 00:02:58 683 145 828
446 Pēteris Drāke 3964 Vecāķu sports 01:31:45 VZ3 298 V343 +41:12 +41:12 00:03:10 551 111 662
447 Kristine Budigina 3444 KSMR FITNESS 01:31:52 SZ3 88 S104 +29:11 +28:02 00:02:59 682 144 826
448 Valdis Lepiksons 3825 Auseklis IK 01:32:01 VZ3 299 V344 +41:28 +41:28 00:02:42 549 130 679
449 Evija Kļave 3185 VSK Noskrien / Jaunmārupe skrien! 01:32:02 SZ3 89 S105 +29:21 +28:12 00:02:52 681 150 831
450 Aigars Olavs 3526 01:32:03 VZ3 300 V345 +41:30 +41:30 00:02:25 549 145 694
451 Mārtiņš Eiduks 3200 01:32:07 VZ3 301 V346 +41:34 +41:34 00:03:06 549 113 662
452 Vasilijs Tkačuks 3235 01:32:07 VZ3 302 V347 +41:34 +41:34 00:03:04 549 114 663
453 Inese Pētersone 3655 Luminor 01:32:07 SZ3 90 S106 +29:26 +28:17 00:03:13 680 134 814
454 Viktors Artamonovs 3786 AUTO KADA 01:32:07 VZ3 303 V348 +41:34 +41:34 00:02:29 549 141 690
455 Artūrs Žeibe 3163 Run 4 Fun / 10K club 01:32:08 VZ3 304 V349 +41:35 +41:35 00:01:46 549 198 747
456 Valentīna Romanova 3153 01:32:09 SZ3 91 S107 +29:28 +28:19 00:02:57 680 146 826
457 Jurģis Jurčenko 13752 01:32:09 VZ3 305 V350 +41:36 +41:36 00:02:47 549 126 675
458 Vilmārs Mangalis 3618 Pēdējā Elpa 01:32:11 VZ3 306 V351 +41:38 +41:38 00:02:37 548 134 682
459 Guntis Domburs 3062 Individual 01:32:15 VZ3 307 V352 +41:42 +41:42 00:02:48 548 125 673
460 Ameli Mazure 3330 01:32:16 SZ1 5 S108 +29:35 +21:37 00:02:52 679 150 829
461 Adam Bernat 4027 eFP BG LATVIA 01:32:17 VZ3 308 V353 +41:44 +41:44 00:03:04 548 114 662
462 Gatis Kriuliņš 3405 01:32:20 VZ3 309 V354 +41:47 +41:47 00:02:17 547 153 700
463 Pavels Mazurs 3797 01:32:20 VZ3 310 V355 +41:47 +41:47 00:01:41 547 208 755
464 Zane Kupče 3561 Saldus Boksa Klubs 01:32:31 SZ3 92 S109 +29:50 +28:41 00:02:48 678 154 832
465 Kaspars Kumpiņš 3617 Knowledgeprice.com 01:32:38 VZ3 311 V356 +42:05 +42:05 00:02:45 546 127 673
466 Endijs Zariņš 3448 Zemgales Ziņas 01:32:38 VZ3 312 V357 +42:05 +42:05 00:02:43 546 129 675
467 Lelde Sarma 3283 LS TeAm 01:32:43 SZ3 93 S110 +30:02 +28:53 00:03:05 676 139 815
468 Egija Gauja 3554 Baldones skriešanas komanda 01:32:47 SZ3 94 S111 +30:06 +28:57 00:02:43 676 158 834
469 Andis Ābele 13728 Ābeles 01:32:49 VZ3 313 V358 +42:16 +42:16 00:02:41 545 130 675
470 Edgars Zariņš 3980 01:32:51 VZ3 314 V359 +42:18 +42:18 00:02:48 544 125 669
471 Kaspars Vīksniņš 3178 01:32:51 VZ3 315 V360 +42:18 +42:18 00:02:38 544 133 677
472 Peep Ristmägi 3271 JK Hermes 01:32:51 VZ3 316 V361 +42:18 +42:18 00:02:47 544 126 670
473 Sandijs Jercums 3744 01:33:01 VZ3 317 V362 +42:28 +42:28 00:01:47 543 196 739
474 Līga Ķireja 13700 LIMBAŽI SKRIEN 01:33:01 SZ3 95 S112 +30:20 +29:11 00:03:21 674 128 802
475 Reinis Rijnieks 3186 01:33:02 VZ3 318 V363 +42:29 +42:29 00:02:47 543 126 669
476 Gita Jurševska 3367 01:33:09 SZ3 96 S113 +30:28 +29:19 00:02:42 673 159 832
477 Dace Mačevska 4088 VSK Noskrien 01:33:14 SZ3 97 S114 +30:33 +29:24 00:02:59 672 144 816
478 Agnija Zizlāne 3522 01:33:17 SZ3 98 S115 +30:36 +29:27 00:03:04 672 140 812
479 Ainars Jansons 3246 01:33:22 VZ3 319 V364 +42:49 +42:49 00:02:39 541 132 673
480 Diāna Stepāne 3383 STROPS Technologies 01:33:23 SZ3 99 S116 +30:42 +29:33 00:03:42 671 116 787
481 Jeļena Vērdiņa 3730 01:33:24 SZ3 100 S117 +30:43 +29:34 00:02:15 671 191 862
482 Sergejs Artemjevs 3665 01:33:26 VZ3 320 V365 +42:53 +42:53 00:02:10 541 162 703
483 Zita Ozoliņa 3941 EY 01:33:32 SZ3 101 S118 +30:51 +29:42 00:02:46 670 155 825
484 Krišs Borītis 3958 B klase 01:33:36 VZ3 321 V366 +43:03 +43:03 00:03:03 540 115 655
485 Jānis Māsēns 4064 01:33:36 VZ3 322 V367 +43:03 +43:03 00:03:16 540 107 647
486 Evita Zemlīte 3821 Siguldas Maratona klubs 01:33:40 SZ3 102 S119 +30:59 +29:50 00:03:03 669 141 810
487 Ansis Kuplis 3889 WWW.RUNNING.LV 01:33:42 VZ3 323 V368 +43:09 +43:09 00:02:26 539 144 683
488 Dace Limmere 3171 Maushi 01:33:44 SZ3 103 S120 +31:03 +29:54 00:03:19 669 130 799
489 Mareks Lazda 4034 Rīgas satiksme 01:33:50 VZ3 324 V369 +43:17 +43:17 00:02:39 539 132 671
490 Nauris Bērziņš 3556 01:33:52 VZ3 325 V370 +43:19 +43:19 00:03:29 539 100 639
491 Einārs Mednis 3570 Jaunmārupe skrien 01:33:57 VZ3 326 V371 +43:24 +43:24 00:02:37 538 134 672
492 Aleksandrs Malašenkovs 3396 01:34:01 VZ3 327 V372 +43:28 +43:28 00:03:01 538 116 654
493 Dina Alksne 13697 Kocēnu novads 1 01:34:01 SZ3 104 S121 +31:20 +30:11 00:02:36 667 165 832
494 Jānis Kanuševskis 3475 01:34:02 VZ3 328 V373 +43:29 +43:29 00:02:56 538 119 657
495 RŪta Barone 3520 TRX CĒSIS 01:34:05 SZ3 105 S122 +31:24 +30:15 00:02:51 666 151 817
496 Malvīne Mennika 4039 Pulsometrs.lv 01:34:10 SZ3 106 S123 +31:29 +30:20 00:02:54 666 148 814
497 Laura Barauska 3287 01:34:11 SZ2 13 S124 +31:30 +31:30 00:03:10 666 136 802
498 Agnis Bērziņš 3881 DNB Service Center 01:34:15 VZ3 329 V374 +43:42 +43:42 00:01:57 536 179 715
499 Uldis Reinicāns 3919 U&G 01:34:17 VZ3 330 V375 +43:44 +43:44 00:02:08 536 164 700
500 Reinis Graviņš 13654 SPORTLAND 01:34:17 VZ2 37 V376 +43:44 +39:29 00:02:14 536 157 693
501 Mairita Lāce 3866 01:34:17 SZ3 107 S125 +31:36 +30:27 00:02:58 665 145 810
502 Dace Vilgerte 4008 DPD Latvija 01:34:23 SZ3 108 S126 +31:42 +30:33 00:02:46 664 155 819
503 Sintija Gertāne 3376 DNB Service Center 01:34:24 SZ3 109 S127 +31:43 +30:34 00:02:37 664 164 828
504 Aldis Putniņš 3770 Matisons Runner’s Club 01:34:29 VZ3 331 V377 +43:56 +43:56 00:02:25 535 145 680
505 Andris Dalbiņš 3852 01:34:35 VZ2 38 V378 +44:02 +39:47 00:03:21 534 104 638
506 Arvis Birkmanis 3757 DEAC 01:34:45 VZ3 332 V379 +44:12 +44:12 00:03:23 534 103 637
507 Didzis Krīgers 3747 01:34:48 VZ3 333 V380 +44:15 +44:15 00:03:06 533 113 646
508 Sigita Tauriņa 3580 01:34:54 SZ3 110 S128 +32:13 +31:04 00:02:58 661 145 806
509 Uldis Krauklis 13676 Accenture > Be Yourself & Make a difference 01:34:55 VZ3 334 V381 +44:22 +44:22 00:02:40 533 131 664
510 Inga Jurčinska 4037 OptiO 01:35:06 SZ3 111 S129 +32:25 +31:16 00:02:53 659 149 808
511 Lauris Lešinskis 3573 01:35:06 VZ3 335 V382 +44:33 +44:33 00:03:10 532 111 643
512 Anita Urkauska 3388 01:35:08 SZ3 112 S130 +32:27 +31:18 00:03:21 659 128 787
513 Anete Bruževica 3646 Luminor 01:35:10 SZ3 113 S131 +32:29 +31:20 00:02:48 659 154 813
514 Markuss Petrausks 3992 01:35:13 VZ2 39 V383 +44:40 +40:25 00:02:52 531 122 653
515 Saiva Sokolova 3276 01:35:17 SZ3 114 S132 +32:36 +31:27 00:03:03 658 141 799
516 Sandra Stonkus 3030 Luminor 01:35:19 SZ3 115 S133 +32:38 +31:29 00:02:58 658 145 803
517 Uldis Zīle 3736 VSK Noskrien 01:35:21 VZ3 336 V384 +44:48 +44:48 00:02:42 530 130 660
518 Andžejs Čerņavskis 3407 01:35:27 VZ3 337 V385 +44:54 +44:54 00:02:30 530 140 670
519 Dmitrijs Todorovs 3146 01:35:28 VZ3 338 V386 +44:55 +44:55 00:02:41 530 130 660
520 Evija Bērziņa 3639 VSK Noskrien / SK Dzērvene 01:35:28 SZ3 116 S134 +32:47 +31:38 00:01:45 657 246 903
521 Baiba Pužule 3939 Selga 01:35:29 SZ3 117 S135 +32:48 +31:39 00:03:06 656 139 795
522 Juris Platgalvis-bancāns 3433 01:35:29 VZ3 339 V387 +44:56 +44:56 00:03:13 529 109 638
523 Vidis Šons 3968 01:35:36 VZ3 340 V388 +45:03 +45:03 00:02:49 529 124 653
524 Ilze Goša 3861 Maratona klubs 01:35:36 SZ3 118 S136 +32:55 +31:46 00:03:02 656 142 798
525 Laima Ziediņa 3088 VSK Noskrien 01:35:38 SZ3 119 S137 +32:57 +31:48 00:02:16 655 190 845
526 Ināra Rube 3176 SK"KATRĪNA'' 01:35:38 SZ3 120 S138 +32:57 +31:48 00:02:51 655 151 806
527 Nils Jansons 3827 01:35:46 VZ3 341 V389 +45:13 +45:13 00:02:23 528 147 675
528 Ivo Buliņš 3384 Zemgales ziņas 01:35:47 VZ3 342 V390 +45:14 +45:14 00:02:21 528 149 677
529 Andris Rozentāls 13764 AR 01:35:58 VZ3 343 V391 +45:25 +45:25 00:03:01 527 116 643
530 Andris Krūmkalns 3516 Tilti Multilingual 01:36:00 VZ3 344 V392 +45:27 +45:27 00:02:54 527 121 648
531 Toms Jermacāns 3132 01:36:00 VZ3 345 V393 +45:27 +45:27 00:02:05 527 168 695
532 Gints Berņikovs - Bondars 3425 01:36:01 VZ3 346 V394 +45:28 +45:28 00:03:04 526 114 640
533 Nora Zvirbule 3959 01:36:03 SZ3 121 S139 +33:22 +32:13 00:02:41 653 160 813
534 Edgars Kviatkovskis 3750 01:36:03 VZ2 40 V395 +45:30 +41:15 00:02:10 526 162 688
535 Mikus Janvars 4081 Liepupe 01:36:08 VZ3 347 V396 +45:35 +45:35 00:02:35 526 135 661
536 Normunds Allens 3674 Labs starts 01:36:10 VZ3 348 V397 +45:37 +45:37 00:02:40 526 131 657
537 Valdis Meirēns 3692 01:36:15 VZ3 349 V398 +45:42 +45:42 00:03:08 525 112 637
538 Valdis Groza 3542 01:36:19 VZ3 350 V399 +45:46 +45:46 00:02:56 525 119 644
539 Ričards Viļumsons 3971 01:36:23 VZ2 41 V400 +45:50 +41:35 00:02:40 524 131 655
540 Māris Zālītis 5408 01:36:25 VZ3 351 V401 +45:52 +45:52 00:02:52 524 122 646
541 Inese Leinasare 3094 01:36:25 SZ3 122 S140 +33:44 +32:35 00:03:09 650 137 787
542 Leo Vīksna 3490 01:36:27 VZ3 352 V402 +45:54 +45:54 00:02:46 524 127 651
543 Liena Skadiņa 3909 BINGO 01:36:27 SZ3 123 S141 +33:46 +32:37 00:03:11 650 135 785
544 Roberts Neilands 3378 DZĒRBENES GALDNIECĪBA 01:36:28 VZ3 353 V403 +45:55 +45:55 00:03:03 524 115 639
545 Evija Šveca 3540 Eko o 01:36:30 SZ3 124 S142 +33:49 +32:40 00:02:58 650 145 795
546 Dana RudzĪte-loČmele 3157 01:36:31 SZ3 125 S143 +33:50 +32:41 00:02:41 649 160 809
547 Inta Cīmure 3443 Cīmurēni 01:36:37 SZ3 126 S144 +33:56 +32:47 00:02:32 649 170 819
548 Arnis Leikarts 3314 01:36:44 VZ3 354 V404 +46:11 +46:11 00:02:51 523 123 646
549 Toms Laimiņš 13685 01:36:46 VZ2 42 V405 +46:13 +41:58 00:02:41 522 130 652
550 Oksana Petroviča 13701 LIMBAŽI SKRIEN 01:36:47 SZ3 127 S145 +34:06 +32:57 00:03:21 648 128 776
551 Linda Grīnberga 3609 01:36:50 SZ3 128 S146 +34:09 +33:00 00:02:29 647 173 820
552 Paula Pakule 3876 Sporta Klubs WENDI 01:36:52 SZ2 14 S147 +34:11 +34:11 00:02:55 647 147 794
553 Ilze Kumpiņa 3637 01:36:53 SZ3 129 S148 +34:12 +33:03 00:02:55 647 147 794
554 Vita Feldmane 3743 01:36:56 SZ3 130 S149 +34:15 +33:06 00:02:58 647 145 792
555 Edgars Eglītis 3534 01:36:57 VZ3 355 V406 +46:24 +46:24 00:02:47 521 126 647
556 Olga Eglīte 3533 Eglīši 01:36:57 SZ3 131 S150 +34:16 +33:07 00:02:47 647 154 801
557 Orests Kalniņš 13751 Mriepas/Mautoserviss/Mtransfer 01:36:58 VZ2 43 V407 +46:25 +42:10 00:01:52 521 188 709
558 Gatis Grandāns 3978 01:36:58 VZ3 356 V408 +46:25 +46:25 00:02:48 521 125 646
559 Līga Vizule 3071 Luminor 01:36:59 SZ3 132 S151 +34:18 +33:09 00:02:57 646 146 792
560 Laura Strupa 3398 Latvijas valsts meži 01:37:01 SZ3 133 S152 +34:20 +33:11 00:02:58 646 145 791
561 Dagnija Tērauda 3415 Eko O 01:37:04 SZ2 15 S153 +34:23 +34:23 00:02:30 646 172 818
562 Evita Sapate 4020 01:37:04 SZ3 134 S154 +34:23 +33:14 00:02:31 646 171 817
563 Ainars Vītoliņš 3209 Kociņi 01:37:09 VZ3 357 V409 +46:36 +46:36 00:03:11 520 110 630
564 Laine Līsmane 3364 01:37:11 SZ3 135 S155 +34:30 +33:21 00:03:05 645 139 784
565 Lauma Rudzīte 3541 VFK Staldzene/Venden 01:37:15 SZ3 136 S156 +34:34 +33:25 00:02:57 645 146 791
566 Ērika Bužinska 13651 SPORTLAND 01:37:15 SZ2 16 S157 +34:34 +34:34 00:02:53 645 149 794
567 Laura Žumbure 3329 Legs Miserables 01:37:17 SZ3 137 S158 +34:36 +33:27 00:02:11 644 197 841
568 Ņikita Šikins 3703 01:37:22 VZ2 44 V410 +46:49 +42:34 00:03:02 519 115 634
569 Juris Broks 3199 01:37:23 VZ3 358 V411 +46:50 +46:50 00:02:31 519 139 658
570 Uldis Ķirsis 13652 SPORTLAND 01:37:24 VZ3 359 V412 +46:51 +46:51 00:03:06 519 113 632
571 Ilze Golovko 3387 Wandoo Finance 01:37:25 SZ3 138 S159 +34:44 +33:35 00:02:47 643 154 797
572 Aleksandrs Sokolovs 13668 PATRIA SPORTLAND 01:37:26 VZ3 360 V413 +46:53 +46:53 00:01:59 519 176 695
573 Zane Beča 3508 01:37:28 SZ3 139 S160 +34:47 +33:38 00:02:59 643 144 787
574 Inna Juršēviča 3213 noskrien Cēsis 01:37:31 SZ3 140 S161 +34:50 +33:41 00:02:42 643 159 802
575 Agnese Freimane 3519 01:37:35 SZ3 141 S162 +34:54 +33:45 00:03:07 642 138 780
576 Zenta Lakovica 4075 Gjensidige 01:37:40 SZ3 142 S163 +34:59 +33:50 00:03:19 642 130 772
577 Laura Valaine 3114 01:37:41 SZ3 143 S164 +35:00 +33:51 00:02:56 642 147 789
578 Edgars Kuks 13719 Laiks kā jūra 01:37:43 VZ3 361 V414 +47:10 +47:10 00:02:47 517 126 643
579 Inese Midrijāne 3192 Mammadaba 01:37:47 SZ3 144 S165 +35:06 +33:57 00:03:19 641 130 771
580 Maksims Tretjakovs 4093 Binitex 01:37:47 VZ3 362 V415 +47:14 +47:14 00:02:31 517 139 656
581 Aigars Kļaviņš 3862 Laiks kā jūra 01:37:54 VZ3 363 V416 +47:21 +47:21 00:02:19 516 151 667
582 Ina Eigenfelde 3687 AMSERV TEAM 01:37:56 SZ3 145 S166 +35:15 +34:06 00:02:00 640 215 855
583 Liene Paula Tovkiņa 3413 01:38:03 SZ3 146 S167 +35:22 +34:13 00:02:36 639 165 804
584 Anda Daubure 13718 01:38:05 SZ3 147 S168 +35:24 +34:15 00:03:17 639 131 770
585 Andis Rubeniņš 3787 01:38:07 VZ3 364 V417 +47:34 +47:34 00:03:16 515 107 622
586 Jana Šķipare 3788 01:38:07 SZ3 148 S169 +35:26 +34:17 00:03:17 639 131 770
587 Arnis Sloka 3497 Swedbank 01:38:14 VZ3 365 V418 +47:41 +47:41 00:02:29 515 141 656
588 Agris Samcovs 3790 NRC 01:38:18 VZ3 366 V419 +47:45 +47:45 00:02:07 514 165 679
589 Svetlana Šanceva 3794 NRC 01:38:20 SZ3 149 S170 +35:39 +34:30 00:02:08 637 202 839
590 Zane Brokāne 3220 Matisons runner's club 01:38:22 SZ3 150 S171 +35:41 +34:32 00:02:43 637 158 795
591 Lana Lindermane 3250 01:38:24 SZ3 151 S172 +35:43 +34:34 00:03:15 637 132 769
592 Raivo Žēperis 3164 R+ 01:38:35 VZ3 367 V420 +48:02 +48:02 00:02:54 513 121 634
593 Aivars Freimanis 3486 Fredis 01:38:37 VZ3 368 V421 +48:04 +48:04 00:02:53 513 121 634
594 Inga Vīksna 3236 Vaidava 01:38:42 SZ3 152 S173 +36:01 +34:52 00:03:07 635 138 773
595 Andris Āboliņš 3238 Vaidava 01:38:44 VZ3 369 V422 +48:11 +48:11 00:03:06 512 113 625
596 Toms Didrihsons 3592 SELGA 01:38:50 VZ3 370 V423 +48:17 +48:17 00:02:48 511 125 636
597 Iveta Putniņa 3068 01:38:51 SZ3 153 S174 +36:10 +35:01 00:03:20 634 129 763
598 Uldis Klemperis 3191 01:38:55 VZ3 371 V424 +48:22 +48:22 00:03:19 511 106 617
599 Arvis Krūmiņš 3134 LMT 01:38:58 VZ3 372 V425 +48:25 +48:25 00:02:14 511 157 668
600 Iveta Kaverska 3735 01:38:58 SZ3 154 S175 +36:17 +35:08 00:03:04 633 140 773
601 Toms Stonkus 3158 01:38:58 VZ3 373 V426 +48:25 +48:25 00:03:23 511 103 614
602 Anna Temerova-Allena 3789 Labs starts 01:38:58 SZ3 155 S176 +36:17 +35:08 00:03:02 633 142 775
603 Evita Taurene 3312 GULBENE 01:38:59 SZ3 156 S177 +36:18 +35:09 00:03:07 633 138 771
604 Āris Zeps 4059 01:39:01 VZ3 374 V427 +48:28 +48:28 00:02:26 511 144 655
605 Dace Tomsone 13694 Jaunmārupe skrien! 01:39:03 SZ3 157 S178 +36:22 +35:13 00:02:52 633 150 783
606 Ainārs Leimanis 3871 01:39:05 VZ3 375 V428 +48:32 +48:32 00:02:49 510 124 634
607 Zane Šņore 3251 01:39:06 SZ3 158 S179 +36:25 +35:16 00:03:09 633 137 770
608 Jānis Klūga 3252 01:39:06 VZ3 376 V429 +48:33 +48:33 00:02:06 510 167 677
609 Ilze Zvīdriņa 3773 01:39:08 SZ3 159 S180 +36:27 +35:18 00:02:46 632 155 787
610 Jānis Svitka 3644 Selga 01:39:11 VZ3 377 V430 +48:38 +48:38 00:02:52 510 122 632
611 Matīss Bravlanskis 3504 Latvijas Finieris 01:39:12 VZ3 378 V431 +48:39 +48:39 00:02:36 510 135 645
612 Gints Fjodorovs 3996 AMSERV TEAM 01:39:13 VZ3 379 V432 +48:40 +48:40 00:03:01 509 116 625
613 Ilze Catlakše 13709 EY 01:39:15 SZ3 160 S181 +36:34 +35:25 00:03:19 632 130 762
614 Ieva Meijere 3854 Team Kažemāka/Train2WinLv 01:39:16 SZ3 161 S182 +36:35 +35:26 00:03:01 631 143 774
615 Guntis Strazds 13716 01:39:20 VZ3 380 V433 +48:47 +48:47 00:02:39 509 132 641
616 Rolanda Ķīkule 3421 01:39:20 SZ2 17 S183 +36:39 +36:39 00:03:00 631 143 774
617 Līga Naumova 3321 01:39:22 SZ3 162 S184 +36:41 +35:32 00:03:08 631 137 768
618 Agnese Žukova 3077 01:39:25 SZ3 163 S185 +36:44 +35:35 00:03:02 631 142 773
619 Līga Zeme 3431 Kuldīga 01:39:29 SZ3 164 S186 +36:48 +35:39 00:02:42 630 159 789
620 Jānis Vītiņš 3545 Klinšu ērģļi 01:39:33 VZ3 381 V434 +49:00 +49:00 00:03:21 508 104 612
621 Edgars Brokāns 3783 01:39:37 VZ3 382 V435 +49:04 +49:04 00:02:43 507 129 636
622 Natālija Jesehina 4078 banana fitness 01:39:39 SZ3 165 S187 +36:58 +35:49 00:03:20 629 129 758
623 Diāna Lauska 4012 DPD Latvija 01:39:40 SZ3 166 S188 +36:59 +35:50 00:02:50 629 152 781
624 Selina Trapp 13702 01:39:40 SZ3 167 S189 +36:59 +35:50 00:02:11 629 197 826
625 Linda Līce 13684 Siguldas Maratona klubs 01:39:43 SZ3 168 S190 +37:02 +35:53 00:03:16 629 132 761
626 Anna Grāmatniece 3578 01:39:49 SZ3 169 S191 +37:08 +35:59 00:03:20 628 129 757
627 Beāte Briška 3642 FINN CRISP 01:39:52 SZ3 170 S192 +37:11 +36:02 00:03:07 628 138 766
628 Mārtiņš Griķis 13646 Pirtslietu darbnīca 01:39:53 VZ1 12 V436 +49:20 +36:09 00:02:58 506 118 624
629 Aiga Turčina 13647 SPORTLAND 01:39:56 SZ2 18 S193 +37:15 +37:15 00:02:58 627 145 772
630 Elīna Balode 4033 01:39:57 SZ3 171 S194 +37:16 +36:07 00:02:55 627 147 774
631 Kristīne Apsēna 3525 REMOSS 01:39:57 SZ2 19 S195 +37:16 +37:16 00:02:34 627 168 795
632 Andīna Sprince 3023 01:39:59 SZ3 172 S196 +37:18 +36:09 00:03:07 627 138 765
633 Aija Sirmā 3480 01:40:01 SZ3 173 S197 +37:20 +36:11 00:03:03 627 141 768
634 Jānis Sprincis 3024 01:40:01 VZ3 383 V437 +49:28 +49:28 00:02:57 505 119 624
635 Vitālijs Poļetajevs 3933 DzSK Lokomotīve 01:40:02 VZ3 384 V438 +49:29 +49:29 00:02:48 505 125 630
636 Nils Kristians Mednis 3442 Saldus Boksa Klubs 01:40:05 VZ1 13 V439 +49:32 +36:21 00:01:37 505 216 721
637 Diāna Mickēviča 3078 01:40:12 SZ3 174 S198 +37:31 +36:22 00:02:59 626 144 770
638 Raphael Pelissier 4032 eFP BG LATVIA 01:40:12 VZ3 385 V440 +49:39 +49:39 00:02:59 504 117 621
639 Elza Toča 3127 01:40:15 SZ1 6 S199 +37:34 +29:36 00:03:09 625 137 762
640 Kristaps Miķelsons 3130 01:40:17 VZ3 386 V441 +49:44 +49:44 00:02:49 504 124 628
641 Marta Teko 3807 BALTAIS 01:40:18 SZ3 175 S200 +37:37 +36:28 00:03:03 625 141 766
642 Linda Lūse 3339 01:40:19 SZ3 176 S201 +37:38 +36:29 00:02:53 625 149 774
643 Edgars Kirhners 3340 01:40:20 VZ3 387 V442 +49:47 +49:47 00:02:54 504 121 625
644 Almants Poikāns 3051 01:40:24 VZ3 388 V443 +49:51 +49:51 00:02:56 503 119 622
645 Zane Matuļone 3269 Realto 01:40:26 SZ2 20 S202 +37:45 +37:45 00:03:21 624 128 752
646 Kristīne Krūmiņa 3017 Sporta halle 01:40:28 SZ3 177 S203 +37:47 +36:38 00:03:11 624 135 759
647 Anete Ozoliņa 3883 01:40:30 SZ3 178 S204 +37:49 +36:40 00:02:55 624 147 771
648 Mārtiņš Līsmanis 3696 MINTprint 01:40:38 VZ3 389 V444 +50:05 +50:05 00:03:12 502 109 611
649 Iveta Stūrīte 3033 01:40:40 SZ3 179 S205 +37:59 +36:50 00:03:13 623 134 757
650 Linda Sinka 3343 Trīs buki 01:40:41 SZ3 180 S206 +38:00 +36:51 00:02:44 623 157 780
651 Elīna Drēziņa 4087 Maxima Latvija 01:40:43 SZ3 181 S207 +38:02 +36:53 00:02:42 622 159 781
652 Egija Dreimane 3587 01:40:44 SZ3 182 S208 +38:03 +36:54 00:02:47 622 154 776
653 Gita Gaisa 3953 Pašiem prieks 01:40:45 SZ3 183 S209 +38:04 +36:55 00:03:02 622 142 764
654 Ingus Mednis 3402 Saldus Boksa klubs 01:40:48 VZ3 390 V445 +50:15 +50:15 00:02:37 501 134 635
655 Edvīns Helmanis 3675 AMSERV 01:40:48 VZ3 391 V446 +50:15 +50:15 00:03:03 501 115 616
656 Kristīne Šmite Šņigirova 3201 01:40:49 SZ3 184 S210 +38:08 +36:59 00:02:55 622 147 769
657 Niklāvs Kadiķis 3753 01:40:50 VZ2 45 V447 +50:17 +46:02 00:03:21 501 104 605
658 Gundega Groma 3539 01:40:51 SZ3 185 S211 +38:10 +37:01 00:03:22 622 128 750
659 Frederiks Kope 3103 Ziemeļvalstu ģimnāzija 01:40:55 VZ1 14 V448 +50:22 +37:11 00:02:33 501 137 638
660 Anete Anna Zālīte 3315 01:40:55 SZ2 21 S212 +38:14 +38:14 00:03:26 621 125 746
661 Viktors Griņevičs 3025 ABC Software 01:41:00 VZ3 392 V449 +50:27 +50:27 00:03:13 500 109 609
662 Egijs Rassa 3087 01:41:03 VZ3 393 V450 +50:30 +50:30 00:03:01 500 116 616
663 Kristīne Kārkliņa 3174 01:41:11 SZ2 22 S213 +38:30 +38:30 00:03:28 620 124 744
664 Pēteris Antonovs 13773 01:41:12 VZ3 394 V451 +50:39 +50:39 00:03:01 500 116 616
665 Lauma Zulge 13760 01:41:14 SZ3 186 S214 +38:33 +37:24 00:03:21 619 128 747
666 Johannes Steibl 3769 Run Fat Boy Rum 01:41:19 VZ3 395 V452 +50:46 +50:46 00:02:07 499 165 664
667 Artūrs Naudiņš 3003 DNB Service Center 01:41:27 VZ3 396 V453 +50:54 +50:54 00:03:21 498 104 602
668 Guna Berlande 3437 TeamKažemāka/Train2WinLv 01:41:29 SZ3 187 S215 +38:48 +37:39 00:03:07 618 138 756
669 Zane Dāvidsone 3080 01:41:29 SZ3 188 S216 +38:48 +37:39 00:03:21 618 128 746
670 Dagnija Katena 13658 SPORTLAND 01:41:30 SZ2 23 S217 +38:49 +38:49 00:03:08 618 137 755
671 Kārlis Čaupals 13657 SPORTLAND 01:41:31 VZ3 397 V454 +50:58 +50:58 00:02:46 498 127 625
672 Jurģis Ķikulis 3064 01:41:36 VZ3 398 V455 +51:03 +51:03 00:02:44 498 128 626
673 Evita Pauriņa 3218 01:41:36 SZ3 189 S218 +38:55 +37:46 00:02:52 617 150 767
674 Dace Liepiņa 3666 01:41:36 SZ3 190 S219 +38:55 +37:46 00:03:28 617 124 741
675 Mairis Levans 3482 Apes draugu grupa 01:41:36 VZ3 399 V456 +51:03 +51:03 00:03:06 498 113 611
676 Liene Mudrova 4099 01:41:38 SZ3 191 S220 +38:57 +37:48 00:03:10 617 136 753
677 Agnese Irbīte 3577 VSK Noskrien 01:41:39 SZ3 192 S221 +38:58 +37:49 00:02:55 617 147 764
678 Armands Tomševics 3531 TOMS 01:41:47 VZ3 400 V457 +51:14 +51:14 00:02:55 497 120 617
679 Irina Tikāne-millere 4096 01:41:59 SZ3 193 S222 +39:18 +38:09 00:03:26 615 125 740
680 Kristīna K 3681 01:42:01 SZ3 194 S223 +39:20 +38:11 00:03:13 614 134 748
681 Kristaps Kaņepe 3284 01:42:01 VZ3 401 V458 +51:28 +51:28 00:03:16 496 107 603
682 Juris Rocēns 3823 Izturība 01:42:03 VZ3 402 V459 +51:30 +51:30 00:03:12 495 109 604
683 Una Tinte 3389 Wandoo Finance 01:42:10 SZ3 195 S224 +39:29 +38:20 00:03:38 614 118 732
684 Igors Mihaļevs 3423 Jēkabpils 01:42:10 VZ3 403 V460 +51:37 +51:37 00:03:14 495 108 603
685 Zigmunds RĪbens 13774 01:42:12 VZ3 404 V461 +51:39 +51:39 00:03:00 495 117 612
686 Mārtiņš Kaķītis 3863 KoBalts 01:42:12 VZ3 405 V462 +51:39 +51:39 00:02:19 495 151 646
687 Emīls Stūrītis 3511 01:42:12 VZ2 46 V463 +51:39 +47:24 00:02:55 495 120 615
688 Pavels Kirilovskis 3382 Zoorbagan 01:42:19 VZ3 406 V464 +51:46 +51:46 00:03:16 494 107 601
689 Arguts Keirāns 13758 SPORTLAND 01:42:21 VZ3 407 V465 +51:48 +51:48 00:03:01 494 116 610
690 Jānis Zariņš 13765 01:42:23 VZ3 408 V466 +51:50 +51:50 00:01:47 494 196 690
691 Daiga Vabule 3188 01:42:25 SZ3 196 S225 +39:44 +38:35 00:03:22 612 128 740
692 Kristīne Karamiševa 4086 Siguldas Maratona klubs 01:42:28 SZ3 197 S226 +39:47 +38:38 00:03:10 612 136 748
693 Eva Lapsiņa 3063 x99/Slīterāni 01:42:29 SZ3 198 S227 +39:48 +38:39 00:03:22 612 128 740
694 Anete Danelsone 3593 VSK Noskrien Blonde / Accenture 01:42:33 SZ3 199 S228 +39:52 +38:43 00:02:26 611 177 788
695 Inga Krastiņa 3994 01:42:34 SZ3 200 S229 +39:53 +38:44 00:03:13 611 134 745
696 Lukas Beckers 3768 Run Fat Boy Run 01:42:36 VZ2 47 V467 +52:03 +47:48 00:02:58 493 118 611
697 Julie Stenstad 3771 Run Fat Boy Run 01:42:39 SZ2 24 S230 +39:58 +39:58 00:02:59 611 144 755
698 Ģirts Priecums 3323 01:42:41 VZ3 409 V468 +52:08 +52:08 00:02:44 492 128 620
699 Santa Gaile 3358 Exigen Services Latvia #optimized4running 01:42:42 SZ3 201 S231 +40:01 +38:52 00:03:10 610 136 746
700 Romans Cvetkovs 3932 01:42:42 VZ3 410 V469 +52:09 +52:09 00:03:03 492 115 607
701 Linda Fedotova 3633 Chubchik 01:42:48 SZ3 202 S232 +40:07 +38:58 00:03:16 610 132 742
702 Reinhards Grīnbergs 3258 01:42:48 VZ3 411 V470 +52:15 +52:15 00:02:22 492 148 640
703 Ilze Zēberga 3473 01:42:55 SZ3 203 S233 +40:14 +39:05 00:03:19 609 130 739
704 Andris Vanadziņš 3731 01:42:57 VZ3 412 V471 +52:24 +52:24 00:03:31 491 100 591
705 Austra Dobrovoļska 3917 Olainfarm 01:42:59 SZ3 204 S234 +40:18 +39:09 00:02:53 609 149 758
706 Ronalds Rodiks 3899 01:43:01 VZ3 413 V472 +52:28 +52:28 00:02:52 491 122 613
707 Jana Kaļagina 3299 01:43:03 SZ3 205 S235 +40:22 +39:13 00:03:21 608 128 736
708 Ance Liepiņa 3288 BALTMA 01:43:06 SZ3 206 S236 +40:25 +39:16 00:03:39 608 118 726
709 Brenda Brakovska 3780 Wood ART.LV 01:43:11 SZ2 25 S237 +40:30 +40:30 00:03:13 607 134 741
710 Vija Utāne 3585 01:43:12 SZ3 207 S238 +40:31 +39:22 00:03:27 607 125 732
711 Ilona Sedleniece 3776 01:43:18 SZ3 208 S239 +40:37 +39:28 00:03:30 607 123 730
712 Ainārs Zizlāns 3521 01:43:18 VZ3 414 V473 +52:45 +52:45 00:03:23 489 103 592
713 Liene Sirma 4060 01:43:19 SZ3 209 S240 +40:38 +39:29 00:03:34 607 121 728
714 Sintija Sproģe 3111 01:43:21 SZ3 210 S241 +40:40 +39:31 00:03:36 607 119 726
715 Lina Robate 3193 01:43:21 SZ3 211 S242 +40:40 +39:31 00:03:35 607 120 727
716 Artūrs Cēsnieks 3614 Exigen Services Latvia #optimized4running 01:43:24 VZ3 415 V474 +52:51 +52:51 00:03:21 489 104 593
717 Sandra Rocēna 3586 Izturība 01:43:24 SZ3 212 S243 +40:43 +39:34 00:03:20 606 129 735
718 Gunārs Valinks 13733 Firma L4 01:43:25 VZ3 416 V475 +52:52 +52:52 00:03:19 489 106 595
719 Linda Dannenberga 3678 01:43:27 SZ3 213 S244 +40:46 +39:37 00:03:02 606 142 748
720 Anete Maže 3215 01:43:28 SZ2 26 S245 +40:47 +40:47 00:03:20 606 129 735
721 Mārtiņš Arkādijs Strazdiņš 3145 STRAZDIŅI 01:43:29 VZ1 15 V476 +52:56 +39:45 00:02:24 488 146 634
722 Maruta Krūmiņa 3342 Maratona klubs 01:43:30 SZ3 214 S246 +40:49 +39:40 00:03:16 606 132 738
723 Santa Niedola 3392 3D Running 01:43:31 SZ3 215 S247 +40:50 +39:41 00:02:58 606 145 751
724 Sandra Ābele 3027 mammadaba 01:43:32 SZ3 216 S248 +40:51 +39:42 00:02:57 605 146 751
725 Lienīte Priedāja-Klepere 3990 Trio Mio 01:43:32 SZ3 217 S249 +40:51 +39:42 00:03:27 605 125 730
726 Agnese Raubena 3294 01:43:36 SZ3 218 S250 +40:55 +39:46 00:03:11 605 135 740
727 Jānis Malcenieks 3733 01:43:37 VZ3 417 V477 +53:04 +53:04 00:03:02 488 115 603
728 Regnārs Valciņš 3973 RL Grupa 01:43:37 VZ3 418 V478 +53:04 +53:04 00:02:49 488 124 612
729 Anete Grandāne 3977 JOE LATVIJA 01:43:37 SZ3 219 S251 +40:56 +39:47 00:03:22 605 128 733
730 Aira Jaunzare 4068 PH Print 01:43:40 SZ3 220 S252 +40:59 +39:50 00:02:58 605 145 750
731 Vladimirs Hohrjakovs 3361 X3 01:43:51 VZ3 419 V479 +53:18 +53:18 00:03:20 487 105 592
732 Māris Reliņš 13769 01:43:53 VZ3 420 V480 +53:20 +53:20 00:03:13 487 109 596
733 Eva Kauliņa 3047 01:43:56 SZ2 27 S253 +41:15 +41:15 00:03:19 603 130 733
734 Raitis Liepa 3653 Luminor 01:44:01 VZ3 421 V481 +53:28 +53:28 00:02:53 486 121 607
735 Dzintars Kriķis 3015 Labo sajūtu kolekcionārs 01:44:08 VZ3 422 V482 +53:35 +53:35 00:03:18 485 106 591
736 Ilona Viļumsone 3510 AkmensDizains.lv 01:44:11 SZ3 221 S254 +41:30 +40:21 00:02:59 602 144 746
737 Ilze Martuļeva 3535 01:44:13 SZ3 222 S255 +41:32 +40:23 00:03:15 601 132 733
738 Kristaps Zaļkalns 4009 KoBalts 01:44:17 VZ3 423 V483 +53:44 +53:44 00:01:44 485 202 687
739 Līga Birnbauma 3836 01:44:19 SZ3 223 S256 +41:38 +40:29 00:03:57 601 109 710
740 Aigars Kājiņš 4001 AK 01:44:21 VZ3 424 V484 +53:48 +53:48 00:03:14 484 108 592
741 Guntis Šīmanis 3038 01:44:25 VZ3 425 V485 +53:52 +53:52 00:02:44 484 128 612
742 Dzintra Šteinberga 3446 Swedbank 01:44:26 SZ3 224 S257 +41:45 +40:36 600 0 600
743 Andrejs Zaicevs 3589 01:44:29 VZ3 426 V486 +53:56 +53:56 00:03:00 484 117 601
744 Ieva Šakena 3223 01:44:32 SZ3 225 S258 +41:51 +40:42 00:03:21 600 128 728
745 Viesturs Sproģis 3242 01:44:35 VZ3 427 V487 +54:02 +54:02 00:02:03 483 171 654
746 Vita Helmane 3676 AMSERV 01:44:40 SZ3 226 S259 +41:59 +40:50 00:03:39 599 118 717
747 Andrejs Jermoļinskis 3803 01:44:41 VZ3 428 V488 +54:08 +54:08 00:03:26 483 102 585
748 Ritvars Stalidzāns 13679 AJFF 01:44:41 VZ2 48 V489 +54:08 +49:53 00:02:45 483 127 610
749 Sindija Sirmā 3067 Guddžobs Guddens 01:44:50 SZ3 227 S260 +42:09 +41:00 00:03:09 598 137 735
750 Dainis Kārkliņš 3326 3Culture 01:44:58 VZ2 49 V490 +54:25 +50:10 00:02:37 482 134 616
751 Zane Zālīte 3461 TRX Cesis 01:44:58 SZ3 228 S261 +42:17 +41:08 00:03:15 597 132 729
752 Armands Bricis 3365 01:45:00 VZ3 429 V491 +54:27 +54:27 00:03:23 481 103 584
753 Ritma Kamendere 13748 01:45:02 SZ3 229 S262 +42:21 +41:12 00:03:16 597 132 729
754 Ivars Vācers 3927 01:45:04 VZ3 430 V492 +54:31 +54:31 00:02:04 481 169 650
755 Inta Zalecka 3190 01:45:06 SZ3 230 S263 +42:25 +41:16 00:03:34 596 121 717
756 Rūdolfs Beļaunieks 13775 SPORTLAND 01:45:11 VZ2 50 V493 +54:38 +50:23 00:02:23 481 147 628
757 Alise Eljašāne 13761 01:45:17 SZ3 231 S264 +42:36 +41:27 00:03:36 595 119 714
758 Dace Keirāne 3967 01:45:19 SZ3 232 S265 +42:38 +41:29 00:03:05 595 139 734
759 Kristīne Reinholde 3716 Siguldas Maratona klubs 01:45:21 SZ3 233 S266 +42:40 +41:31 00:02:42 595 159 754
760 Ilze Vācere 3929 VSK Noskrien / Team Kažemāka 01:45:24 SZ3 234 S267 +42:43 +41:34 00:02:42 595 159 754
761 Baiba Bule 3496 Swedbank 01:45:30 SZ3 235 S268 +42:49 +41:40 00:03:04 594 140 734
762 Līga Kalniņa 3095 Swedbank 01:45:32 SZ3 236 S269 +42:51 +41:42 00:03:24 594 126 720
763 Līga Pakalna 3576 KROKUS 01:45:36 SZ3 237 S270 +42:55 +41:46 00:03:07 594 138 732
764 Iveta Čopa 3379 01:45:37 SZ3 238 S271 +42:56 +41:47 00:03:43 593 116 709
765 Dainis Persidskis 4040 Magdalena 01:45:40 VZ3 431 V494 +55:07 +55:07 00:03:16 478 107 585
766 Daina Reveliņa 13703 Team Kažemāka/Train2Win.lv 01:45:44 SZ3 239 S272 +43:03 +41:54 00:03:32 593 122 715
767 Kristīne Freimane 13714 Accenture 01:45:53 SZ2 28 S273 +43:12 +43:12 00:02:49 592 153 745
768 Antons Fedorenko 3082 01:46:05 VZ3 432 V495 +55:32 +55:32 00:03:34 477 98 575
769 Linda Dreimane 3181 01:46:08 SZ3 240 S274 +43:27 +42:18 00:03:28 591 124 715
770 Liene Piķe 3582 01:46:13 SZ3 241 S275 +43:32 +42:23 00:03:26 590 125 715
771 Sintija Kārkliņa 3778 01:46:15 SZ2 29 S276 +43:34 +43:34 00:03:10 590 136 726
772 Madara Ontužāne 13574 01:46:16 SZ3 242 S277 +43:35 +42:26 00:03:16 590 132 722
773 Lauma Zilgalve 3538 01:46:16 SZ3 243 S278 +43:35 +42:26 00:02:39 590 162 752
774 Kristīne Graudiņa 3853 01:46:21 SZ2 30 S279 +43:40 +43:40 00:03:17 589 131 720
775 Edgars Marcinkevičs 3100 Lidosta 01:46:21 VZ3 433 V496 +55:48 +55:48 00:02:59 475 117 592
776 Uldis Gailītis 3830 01:46:22 VZ3 434 V497 +55:49 +55:49 00:02:59 475 117 592
777 Roberts Ramba 3979 01:46:31 VZ2 51 V498 +55:58 +51:43 00:03:08 475 112 587
778 Laima Letiņa 4000 01:46:46 SZ3 244 S280 +44:05 +42:56 00:02:52 587 150 737
779 Mārtiņš Fārenhorsts 3838 Talsu pakalnu sporta klubs 01:46:47 VZ3 435 V499 +56:14 +56:14 473 0 473
780 Jānis Villa 3715 01:46:50 VZ3 436 V500 +56:17 +56:17 00:03:18 473 106 579
781 Emīls Ezerkalns 3403 HAVI Logistics 01:46:51 VZ2 52 V501 +56:18 +52:03 00:02:15 473 156 629
782 Karīna Mamedova 3179 Daugavpils Runners 01:46:52 SZ3 245 S281 +44:11 +43:02 00:02:32 587 170 757
783 Anna Tomševica 3058 TOMS 01:46:58 SZ3 246 S282 +44:17 +43:08 00:03:51 586 112 698
784 Igors Vasiljevs 3766 01:47:00 VZ3 437 V502 +56:27 +56:27 00:01:38 472 214 686
785 Liene Mitre 3680 Mailigen 01:47:01 SZ3 247 S283 +44:20 +43:11 00:03:16 586 132 718
786 Inga Pūcīte 3133 01:47:03 SZ3 248 S284 +44:22 +43:13 00:03:14 586 133 719
787 Annija Kārkliņa 3039 01:47:06 SZ2 31 S285 +44:25 +44:25 00:03:01 585 143 728
788 Jānis Riekstiņš 3913 01:47:08 VZ3 438 V503 +56:35 +56:35 00:03:18 472 106 578
789 Māris Dambis 13731 INSALVO 01:47:10 VZ3 439 V504 +56:37 +56:37 00:03:01 472 116 588
790 Daniela Kārkle 3940 01:47:13 SZ3 249 S286 +44:32 +43:23 00:03:10 585 136 721
791 Reinis Polačenko 3841 HAVI Logistics 01:47:14 VZ3 440 V505 +56:41 +56:41 00:02:28 471 142 613
792 Inga Putraima 3499 01:47:23 SZ3 250 S287 +44:42 +43:33 00:03:05 584 139 723
793 Anete Kampare 16127 01:47:28 SZ3 251 S288 +44:47 +43:38 00:03:19 583 130 713
794 Kristīne Kampare 16128 01:47:30 SZ3 252 S289 +44:49 +43:40 00:03:26 583 125 708
795 Māris Ozoliņš 3911 01:47:34 VZ3 441 V506 +57:01 +57:01 00:03:41 470 95 565
796 Elīna Lazdiņa 3090 01:47:40 SZ3 253 S290 +44:59 +43:50 00:02:59 582 144 726
797 Agra Ieleja 3708 VSK Noskrien Divplākšņi 01:47:42 SZ3 254 S291 +45:01 +43:52 00:02:47 582 154 736
798 Evita Gredzena 3960 Realto 01:47:43 SZ3 255 S292 +45:02 +43:53 00:03:09 582 137 719
799 Inese Zepa 3076 Ašās kājas ZID 01:47:45 SZ3 256 S293 +45:04 +43:55 00:03:35 582 120 702
800 Sandra Gudēvica 13680 VSK Noskrien 01:47:46 SZ3 257 S294 +45:05 +43:56 00:03:30 582 123 705
801 Dainis Ramats 4070 01:47:52 VZ3 442 V507 +57:19 +57:19 00:02:59 469 117 586
802 Ieva Jaunslaviete 3536 01:47:53 SZ2 32 S295 +45:12 +45:12 00:03:01 581 143 724
803 Ansis Gornavs 3613 Team Kažemāka/Train2WinLv 01:47:57 VZ3 443 V508 +57:24 +57:24 00:02:45 468 127 595
804 Vineta Veisberga 3332 Saldus boksa klubs 01:48:02 SZ3 258 S296 +45:21 +44:12 00:03:36 580 119 699
805 Indulis Ķerus 3002 01:48:02 VZ3 444 V509 +57:29 +57:29 00:01:41 468 208 676
806 Ivonna Stefanišina 3659 Luminor 01:48:03 SZ3 259 S297 +45:22 +44:13 00:03:07 580 138 718
807 Daina Gotfrīde-Bernsone 3072 01:48:10 SZ3 260 S298 +45:29 +44:20 00:02:48 580 154 734
808 Linda Danilāne 3621 Olainfarm 01:48:13 SZ3 261 S299 +45:32 +44:23 00:03:26 579 125 704
809 Kristaps Brizga 3948 Olainfarm 01:48:13 VZ3 445 V510 +57:40 +57:40 00:03:29 467 100 567
810 Sandra Kadiķe 3752 01:48:16 SZ3 262 S300 +45:35 +44:26 00:03:38 579 118 697
811 Frederik Kipp 3151 Fredi läuft 01:48:21 VZ2 53 V511 +57:48 +53:33 00:03:36 467 97 564
812 Kipp Werner 3150 Fredi läuft 01:48:24 VZ3 446 V512 +57:51 +57:51 00:03:35 466 98 564
813 Kristīne Kuduma 3292 01:48:26 SZ3 263 S301 +45:45 +44:36 00:03:20 578 129 707
814 Lilita Ertmane 3122 01:48:29 SZ3 264 S302 +45:48 +44:39 00:03:27 578 125 703
815 Agnese Ose 3806 Baltais 01:48:29 SZ3 265 S303 +45:48 +44:39 00:03:26 578 125 703
816 Sandis Čilipāns 3820 Smārde 01:48:31 VZ3 447 V513 +57:58 +57:58 00:03:26 466 102 568
817 Indulis Jansons 3831 01:48:31 VZ3 448 V514 +57:58 +57:58 00:03:40 466 95 561
818 Jolanta Beleviča 3791 01:48:37 SZ3 266 S304 +45:56 +44:47 00:04:37 577 93 670
819 Selva Ločmele 3942 01:48:40 SZ3 267 S305 +45:59 +44:50 00:03:25 577 126 703
820 Roberts Ziediņš 13671 01:48:41 VZ3 449 V515 +58:08 +58:08 00:03:24 465 103 568
821 Rasma Pušpure 3961 01:48:43 SZ3 268 S306 +46:02 +44:53 00:02:40 577 161 738
822 Evita Lenša 13732 Akmens Dizains 01:48:45 SZ3 269 S307 +46:04 +44:55 00:03:42 576 116 692
823 Kristīne Kadaša 3760 01:48:50 SZ3 270 S308 +46:09 +45:00 00:02:46 576 155 731
824 Santa Japeniņa 3440 01:48:51 SZ3 271 S309 +46:10 +45:01 00:03:09 576 137 713
825 Valerijs Smirnovs 3093 01:48:55 VZ3 450 V516 +58:22 +58:22 00:03:16 464 107 571
826 Irina Belugina 3079 01:48:56 SZ3 272 S310 +46:15 +45:06 00:03:26 575 125 700
827 Vita Vecvanaga 13707 Clean R 01:48:56 SZ3 273 S311 +46:15 +45:06 00:03:25 575 126 701
828 Guna Ķirse 3125 Draugiem Group 01:49:01 SZ3 274 S312 +46:20 +45:11 00:03:01 575 143 718
829 Olita Poplavska 3590 MAGNEN 01:49:01 SZ3 275 S313 +46:20 +45:11 00:04:02 575 107 682
830 Madara Zviedre 3273 01:49:03 SZ3 276 S314 +46:22 +45:13 00:03:03 575 141 716
831 Ieva Rijniece 3828 01:49:06 SZ2 33 S315 +46:25 +46:25 00:02:59 575 144 719
832 Marina Kaže 3970 Latvijas Finieris 01:49:08 SZ3 277 S316 +46:27 +45:18 00:03:21 574 128 702
833 Jānis Vēveris 3900 01:49:13 VZ3 451 V517 +58:40 +58:40 00:03:20 463 105 568
834 Rihards Ozols 3625 ATEA 01:49:14 VZ3 452 V518 +58:41 +58:41 00:02:47 463 126 589
835 Kārlis Krīgalis 3045 01:49:14 VZ3 453 V519 +58:41 +58:41 00:03:04 463 114 577
836 Agita Cimoška 3812 01:49:17 SZ3 278 S317 +46:36 +45:27 00:03:54 574 110 684
837 Gerda Markus 3802 01:49:20 SZ3 279 S318 +46:39 +45:30 00:03:27 573 125 698
838 Līga Urme 3804 01:49:20 SZ3 280 S319 +46:39 +45:30 00:03:21 573 128 701
839 Edgars Mucenieks 3020 STIGA 01:49:23 VZ3 454 V520 +58:50 +58:50 00:03:42 462 95 557
840 Pēteris Druvietis 3880 Lazdu Laipa 01:49:25 VZ3 455 V521 +58:52 +58:52 00:03:22 462 104 566
841 Jekaterina Mironova 3662 Luminor 01:49:27 SZ2 34 S320 +46:46 +46:46 00:03:12 573 134 707
842 Ivars Melnis 2471 Olainfarm 01:49:29 VZ3 456 V522 +58:56 +58:56 00:03:33 462 99 561
843 Anda Cielava 3945 Olainfarm 01:49:33 SZ2 35 S321 +46:52 +46:52 00:03:35 572 120 692
844 Marta Dieviņa 3935 01:49:39 SZ3 281 S322 +46:58 +45:49 00:02:38 572 163 735
845 Arvo Soosalu 3270 JK Hermes 01:49:44 VZ3 457 V523 +59:11 +59:11 00:03:22 461 104 565
846 Sintija Lungeviča 3375 Madona 01:49:57 SZ3 282 S323 +47:16 +46:07 00:03:12 570 134 704
847 Romans Šroms 13738 VSK Noskrien 01:49:59 VZ3 458 V524 +59:26 +59:26 00:03:27 460 101 561
848 Ilga Melne 3709 Olainfarm 01:50:03 SZ2 36 S324 +47:22 +47:22 00:02:42 570 159 729
849 Mārtiņš Bankovskis 13766 01:50:05 VZ3 459 V525 +59:32 +59:32 00:03:16 459 107 566
850 Leva Rassa 13585 01:50:07 SZ3 283 S325 +47:26 +46:17 00:03:34 569 121 690
851 Toms Rīts 3004 Draugiem Group 01:50:09 VZ3 460 V526 +59:36 +59:36 00:02:52 459 122 581
852 Kristina Rutkauska 3805 01:50:11 SZ3 284 S326 +47:30 +46:21 00:03:22 569 128 697
853 Ineta Tannenberga 3232 01:50:14 SZ3 285 S327 +47:33 +46:24 00:03:14 569 133 702
854 Dairis Kandelis 3723 01:50:16 VZ3 461 V527 +59:43 +59:43 00:03:31 458 100 558
855 Inta Hansone 3303 01:50:16 SZ3 286 S328 +47:35 +46:26 00:03:38 568 118 686
856 Juris Belevičs 3792 01:50:17 VZ3 462 V528 +59:44 +59:44 00:03:20 458 105 563
857 Ieva Millere 3106 01:50:20 SZ3 287 S329 +47:39 +46:30 00:03:56 568 109 677
858 Margita Zaiceva 3512 Latvijas Gaisa Satiksme 01:50:34 SZ3 288 S330 +47:53 +46:44 00:03:58 567 108 675
859 Maruta Rancāne 3702 Visma Active 01:50:41 SZ3 289 S331 +48:00 +46:51 00:03:29 566 123 689
860 Ieva Leikarte 3313 01:50:42 SZ3 290 S332 +48:01 +46:52 00:03:26 566 125 691
861 Līga Barovska 3925 Baltais 01:50:45 SZ3 291 S333 +48:04 +46:55 00:03:17 566 131 697
862 Paula PŪĶe 3529 PŪĶI 01:50:51 SZ3 292 S334 +48:10 +47:01 00:03:45 565 115 680
863 Amanda Miltiņa 3266 SSS 01:50:52 SZ1 7 S335 +48:11 +40:13 00:02:42 565 159 724
864 Kristīne Podvinska 3782 Train2win.lv 01:50:57 SZ3 293 S336 +48:16 +47:07 00:02:40 565 161 726
865 Jelena Prants 13729 Võru Suusaklubi 01:51:00 SZ3 294 S337 +48:19 +47:10 00:03:58 565 108 673
866 Katrīna Liepiņa 3501 Sanderu klans I Stirnubuks.lv 01:51:09 SZ3 295 S338 +48:28 +47:19 00:03:11 564 135 699
867 Ivars Krūmiņš 3016 Sporta halle 01:51:13 VZ3 463 V529 +1:00:40 +1:00:40 00:03:35 455 98 553
868 Zanda Kristovica 3352 Kaimiņu būšana 01:51:20 SZ3 296 S339 +48:39 +47:30 00:03:30 563 123 686
869 Linda Gudrīte-Šipenko 3142 Legs Miserables 01:51:27 SZ3 297 S340 +48:46 +47:37 00:03:23 562 127 689
870 Agita Zariņa 3492 01:51:43 SZ3 298 S341 +49:02 +47:53 00:03:27 561 125 686
871 Lelde Grīnvalde 3022 01:51:44 SZ3 299 S342 +49:03 +47:54 00:03:15 561 132 693
872 Erlands Krivāns 3491 01:51:45 VZ3 464 V530 +1:01:12 +1:01:12 00:02:16 452 154 606
873 Sigita Šilinska 3285 01:51:47 SZ3 300 S343 +49:06 +47:57 00:03:21 561 128 689
874 Jānis Liepiņš 3463 01:51:54 VZ3 465 V531 +1:01:21 +1:01:21 00:03:29 452 100 552
875 Alise Buceniece 4095 01:52:00 SZ2 37 S344 +49:19 +49:19 00:03:47 560 114 674
876 Egija Gulbinska 3289 01:52:04 SZ3 301 S345 +49:23 +48:14 00:03:31 559 122 681
877 Liene Katarina 13683 01:52:04 SZ3 302 S346 +49:23 +48:14 00:03:44 559 115 674
878 Inita Drēziņa 3740 L'oreal Baltics 01:52:12 SZ3 303 S347 +49:31 +48:22 00:03:26 559 125 684
879 Dzintars Džons Fidžeralds Jaunzems 4074 Siguldas Maratona klubs 01:52:14 VZ3 466 V532 +1:01:41 +1:01:41 00:03:23 450 103 553
880 Laura Priedīte 13571 01:52:17 SZ3 304 S348 +49:36 +48:27 00:03:04 558 140 698
881 Viola Bundzēna 3553 01:52:20 SZ3 305 S349 +49:39 +48:30 00:03:29 558 123 681
882 Kintija Celmiņa 3594 01:52:43 SZ2 38 S350 +50:02 +50:02 00:03:27 556 125 681
883 Jolanta Kravale 3487 01:52:44 SZ3 306 S351 +50:03 +48:54 00:03:22 556 128 684
884 Dace Ansone 3369 - 01:52:46 SZ3 307 S352 +50:05 +48:56 00:03:28 556 124 680
885 Ieva Buhrote 4043 #kineticsskrien 01:53:05 SZ3 308 S353 +50:24 +49:15 00:03:16 554 132 686
886 Baiba Kreišmane 3280 01:53:09 SZ3 309 S354 +50:28 +49:19 00:03:25 554 126 680
887 Sarmīte Bokmeldere 3368 Rīgas satiksme 01:53:19 SZ3 310 S355 +50:38 +49:29 00:03:55 553 110 663
888 Jana Gladiševa 3546 01:53:20 SZ3 311 S356 +50:39 +49:30 00:03:28 553 124 677
889 Sandra Kapče 3424 01:53:27 SZ2 39 S357 +50:46 +50:46 00:03:32 553 122 675
890 Reinis Rozītis 13643 01:53:29 VZ3 467 V533 +1:02:56 +1:02:56 00:04:05 445 86 531
891 Zane Mirdza Paikena 3575 Domdaris 01:53:29 SZ3 312 S358 +50:48 +49:39 00:03:32 552 122 674
892 Zane Bule-mitka 3059 01:53:30 SZ3 313 S359 +50:49 +49:40 00:03:48 552 113 665
893 Elīna Sebre - Cunska 13771 01:53:35 SZ3 314 S360 +50:54 +49:45 00:03:51 552 112 664
894 Agnese Leiburga 4056 Zemgales Ziņas 01:53:36 SZ3 315 S361 +50:55 +49:46 00:03:41 552 117 669
895 Gunta Meluškāne 3348 EY 01:53:36 SZ3 316 S362 +50:55 +49:46 00:03:30 552 123 675
896 Mārtiņš Cinītis 4047 #kineticsskrien 01:53:40 VZ3 468 V534 +1:03:07 +1:03:07 00:03:34 445 98 543
897 Oksana Kirilova 3651 Luminor 01:53:41 SZ3 317 S363 +51:00 +49:51 00:03:34 551 121 672
898 Solvita Bērziša 3975 Accenture > Be Yourself & Make a difference 01:53:45 SZ3 318 S364 +51:04 +49:55 00:03:35 551 120 671
899 Līga Salmane 3138 Sporta klubs WENDI 01:53:47 SZ3 319 S365 +51:06 +49:57 00:03:25 551 126 677
900 Anitra Leitlande 3189 01:53:53 SZ3 320 S366 +51:12 +50:03 00:03:41 550 117 667
901 Tatjana Vološčuka 3847 01:53:54 SZ3 321 S367 +51:13 +50:04 00:02:47 550 154 704
902 Baiba Druseika 3840 01:53:54 SZ3 322 S368 +51:13 +50:04 00:02:57 550 146 696
903 Zane Metla 3679 Mailigen 01:53:56 SZ3 323 S369 +51:15 +50:06 00:03:09 550 137 687
904 Santa Siksna 3112 01:53:58 SZ3 324 S370 +51:17 +50:08 00:03:29 550 123 673
905 Santa Šakarne 3472 Swedbank 01:53:59 SZ3 325 S371 +51:18 +50:09 00:03:37 550 119 669
906 Zanda Strazdiņa 3144 STRAZDIŅI 01:54:04 SZ3 326 S372 +51:23 +50:14 00:02:56 550 147 697
907 Deniss Rostkovskis 3724 01:54:23 VZ3 469 V535 +1:03:50 +1:03:50 00:02:54 442 121 563
908 Alise Griķe 3965 Daugavpils Runners 01:54:37 SZ3 327 S373 +51:56 +50:47 00:03:48 547 113 660
909 Ieva Kiseļeva 3652 Luminor 01:54:41 SZ3 328 S374 +52:00 +50:51 00:03:28 547 124 671
910 Kaspars Vilcāns 3414 Ogre 01:54:42 VZ3 470 V536 +1:04:09 +1:04:09 00:03:33 441 99 540
911 Gustavs Daniels Ozols 3758 Lynxdojo 01:54:44 VZ1 16 V537 +1:04:11 +51:00 00:03:47 441 93 534
912 Daniels Kogans 3450 Lynxdojo 01:54:44 VZ1 17 V538 +1:04:11 +51:00 00:03:47 441 93 534
913 Egija Veide 3118 DC VECSALACAS UNITED 01:54:47 SZ3 329 S375 +52:06 +50:57 00:03:28 546 124 670
914 Anna Greitāne 3800 Lynxdojo 01:54:50 SZ2 40 S376 +52:09 +52:09 00:03:56 546 109 655
915 Jānis Varslavāns 3320 01:55:02 VZ3 471 V539 +1:04:29 +1:04:29 00:03:40 439 95 534
916 Gints Dreija 13655 SPORTLAND 01:55:12 VZ2 54 V540 +1:04:39 +1:00:24 00:02:59 439 117 556
917 Kristīna Novikova 3427 Swedbank 01:55:32 SZ3 330 S377 +52:51 +51:42 00:03:10 543 136 679
918 Indra Anckiņa 13670 01:55:36 SZ3 331 S378 +52:55 +51:46 00:03:38 542 118 660
919 Anastasija Čekriževa 5084 SK Tērauds 01:55:49 SZ3 332 S379 +53:08 +51:59 00:03:12 541 134 675
920 Jūlija Kuzņecova 5007 01:55:49 SZ3 333 S380 +53:08 +51:59 00:03:13 541 134 675
921 Ruta Saliņa 3394 01:55:55 SZ3 334 S381 +53:14 +52:05 00:03:11 541 135 676
922 Evita Ozoliņa 3081 01:55:56 SZ3 335 S382 +53:15 +52:06 00:03:12 541 134 675
923 Valdis PŪĶis 3041 PŪĶI 01:55:57 VZ3 472 V541 +1:05:24 +1:05:24 00:03:49 436 92 528
924 Gita Biezuma 3741 01:55:58 SZ3 336 S383 +53:17 +52:08 00:03:38 541 118 659
925 Aija Miķīte 13682 01:55:59 SZ3 337 S384 +53:18 +52:09 00:03:18 540 130 670
926 Aira Urtāne 3746 01:56:09 SZ3 338 S385 +53:28 +52:19 00:03:19 540 130 670
927 Andris Bukšs 3195 VSK Noskrien 01:57:07 VZ3 473 V542 +1:06:34 +1:06:34 00:03:58 432 88 520
928 Sanita Ozoliņa 3944 01:57:10 SZ3 339 S386 +54:29 +53:20 00:03:47 535 114 649
929 Liene Buldere 3169 01:57:16 SZ3 340 S387 +54:35 +53:26 00:03:36 535 119 654
930 Heino Bulders 3170 01:57:17 VZ3 474 V543 +1:06:44 +1:06:44 00:03:34 431 98 529
931 Elīna Siliņa 3657 01:57:33 SZ3 341 S388 +54:52 +53:43 00:03:50 533 112 645
932 Sabīne Kjahjare 3447 01:57:56 SZ2 41 S389 +55:15 +55:15 00:03:13 532 134 666
933 Gita Gintere Kikuste 3552 01:57:59 SZ3 342 S390 +55:18 +54:09 00:04:08 531 104 635
934 Roberts Bebrišs 3231 01:58:02 VZ3 475 V544 +1:07:29 +1:07:29 00:03:37 428 97 525
935 Kristians Grinbergs 3711 Rīgas 45.vidusskola 01:58:21 VZ2 55 V545 +1:07:48 +1:03:33 00:03:00 427 117 544
936 Iveta Dobele 3255 01:58:25 SZ3 343 S391 +55:44 +54:35 00:03:52 529 111 640
937 Ilze Miķelsone 3129 01:58:36 SZ3 344 S392 +55:55 +54:46 00:03:10 529 136 665
938 Inta Amoliņa 4004 VSK Noskrien Divplākšņi 01:58:45 SZ3 345 S393 +56:04 +54:55 00:03:35 528 120 648
939 Sintija Ozoliņa 13710 Jaunmārupes skrējēji 01:58:49 SZ3 346 S394 +56:08 +54:59 00:03:45 528 115 643
940 Līga Lauva 4071 DNB Service Center 01:58:49 SZ3 347 S395 +56:08 +54:59 00:02:49 528 153 681
941 Dace Rozenberga 3755 01:58:59 SZ3 348 S396 +56:18 +55:09 00:04:09 527 104 631
942 Anita Langmane 3957 01:59:00 SZ3 349 S397 +56:19 +55:10 00:03:36 527 119 646
943 Linda Ulmane 3498 01:59:01 SZ3 350 S398 +56:20 +55:11 00:03:13 527 134 661
944 Santa Koziorova 3234 Trakās Vāveres un Rieksti 01:59:05 SZ3 351 S399 +56:24 +55:15 00:03:08 526 137 663
945 Aija Puriņa 3239 Puriņi 01:59:07 SZ3 352 S400 +56:26 +55:17 00:03:28 526 124 650
946 Līga Buhrote 3260 01:59:19 SZ3 353 S401 +56:38 +55:29 00:03:38 525 118 643
947 Ilze Tomiņa - Stare 3767 KROKUS 01:59:20 SZ3 354 S402 +56:39 +55:30 00:03:37 525 119 644
948 Karīna Čudare 3183 01:59:24 SZ2 42 S403 +56:43 +56:43 525 0 525
949 Krista Rudzīte 3706 01:59:26 SZ3 355 S404 +56:45 +55:36 00:03:55 525 110 635
950 Emīls Kuningass 3197 01:59:46 VZ3 476 V546 +1:09:13 +1:09:13 00:03:05 422 114 536
951 Sandra Ūdre 3317 01:59:57 SZ3 356 S405 +57:16 +56:07 00:03:24 523 126 649
952 Toms Miķelšteins 4048 02:00:01 VZ3 477 V547 +1:09:28 +1:09:28 00:02:02 421 172 593
953 Līva Leja 3279 02:00:02 SZ3 357 S406 +57:21 +56:12 00:03:52 522 111 633
954 Ilma Melne 3950 Olainfarm 02:00:06 SZ3 358 S407 +57:25 +56:16 00:03:41 522 117 639
955 Ivo Levāns 3936 Engures sportam 02:00:08 VZ3 478 V548 +1:09:35 +1:09:35 00:04:02 421 87 508
956 Zane Alsberga 3991 ineresantais kaspars 02:00:12 SZ2 43 S408 +57:31 +57:31 00:03:32 521 122 643
957 Sandis Krutovs 3785 cedric.lv 02:00:16 VZ3 479 V549 +1:09:43 +1:09:43 00:04:05 420 86 506
958 Iveta Zizlāne 3571 02:00:19 SZ3 359 S409 +57:38 +56:29 00:03:41 521 117 638
959 Ināra Zariņa 13759 02:00:53 SZ3 360 S410 +58:12 +57:03 00:04:12 519 102 621
960 Uldis ZemlĪtis 3527 02:00:55 VZ3 480 V550 +1:10:22 +1:10:22 00:04:11 418 84 502
961 Ingūna Semjonova 3265 Zemgales Ziņas 02:00:55 SZ3 361 S411 +58:14 +57:05 00:03:33 518 121 639
962 Aigars Eglājs 3712 Pa Vienam 02:01:17 VZ3 481 V551 +1:10:44 +1:10:44 00:03:49 417 92 509
963 Inga Zalāne 3734 DNB Service Center 02:01:18 SZ3 362 S412 +58:37 +57:28 00:03:49 517 113 630
964 Zane Auziņa 3616 02:01:48 SZ3 363 S413 +59:07 +57:58 00:03:58 515 108 623
965 Elizabete Brauna 3359 Lynxdojo 02:01:50 SZ2 44 S414 +59:09 +59:09 00:04:10 515 103 618
966 Sendija Galdiņa 3381 02:01:56 SZ3 364 S415 +59:15 +58:06 00:04:09 514 104 618
967 Kaspars Rutkis 3738 02:03:14 VZ3 482 V552 +1:12:41 +1:12:41 00:04:31 410 77 487
968 Zane Balcere 3694 EY 02:03:20 SZ3 365 S416 +1:00:39 +59:30 00:03:00 508 143 651
969 Sanita Ločmele 4006 Wunder Latvia 02:03:31 SZ3 366 S417 +1:00:50 +59:41 00:04:01 507 107 614
970 Digna Norbuta 3096 02:03:35 SZ3 367 S418 +1:00:54 +59:45 00:03:24 507 126 633
971 Linda Berga 3751 02:04:03 SZ3 368 S419 +1:01:22 +1:00:13 00:03:47 505 114 619
972 Dace Dūka 3784 02:04:04 SZ3 369 S420 +1:01:23 +1:00:14 00:03:48 505 113 618
973 Reno Eizenbārdis 3459 Herbalife Nutrition 02:04:10 VZ3 483 V553 +1:13:37 +1:13:37 00:03:17 407 107 514
974 Ilze Briņķe 4066 Baltais 02:04:14 SZ3 370 S421 +1:01:33 +1:00:24 00:04:13 505 102 607
975 Aiva Rupeika 13767 02:05:42 SZ3 371 S422 +1:03:01 +1:01:52 00:03:46 499 114 613
976 Marija Šapovalova 4049 EY 02:05:45 SZ3 372 S423 +1:03:04 +1:01:55 00:03:43 498 116 614
977 Sandra Grišina 3695 Siguldas Maratona klubs 02:05:57 SZ3 373 S424 +1:03:16 +1:02:07 00:04:14 498 102 600
978 Evita Prindule 3796 02:05:58 SZ3 374 S425 +1:03:17 +1:02:08 00:04:03 498 106 604
979 Edīte Skrebele 3551 BAUERFEIND 02:06:01 SZ3 375 S426 +1:03:20 +1:02:11 00:03:35 497 120 617
980 Lauma Lieksne 3126 02:06:06 SZ3 376 S427 +1:03:25 +1:02:16 00:03:58 497 108 605
981 Andis Ozoliņš 3815 Nūjo priekam 02:06:08 VZ3 484 V554 +1:15:35 +1:15:35 00:03:48 401 92 493
982 Ilze Šarna 3295 DNB Service Center 02:06:10 SZ3 377 S428 +1:03:29 +1:02:20 00:03:31 497 122 619
983 Ilona Urtāne 3162 02:06:11 SZ3 378 S429 +1:03:30 +1:02:21 00:03:57 497 109 606
984 Linda Eizenbārde 3458 Herbalife Nutrition 02:06:19 SZ3 379 S430 +1:03:38 +1:02:29 00:03:40 496 117 613
985 LĪga Ančeva 3411 VARAKĻĀNI 02:06:25 SZ3 380 S431 +1:03:44 +1:02:35 00:04:02 496 107 603
986 Madara Kļaviņa 3557 VARAKLANI 02:06:26 SZ3 381 S432 +1:03:45 +1:02:36 00:04:01 496 107 603
987 Mārtiņš Veseris 3532 02:06:35 VZ3 485 V555 +1:16:02 +1:16:02 00:02:17 399 153 552
988 Anna Vaļceva 3052 Signature Wines 02:06:36 SZ3 382 S433 +1:03:55 +1:02:46 00:04:04 495 106 601
989 Ieva Ozoliņa 3868 AkmensDizains.lv 02:06:48 SZ3 383 S434 +1:04:07 +1:02:58 00:03:45 494 115 609
990 Kristiāna Dolge 3779 02:06:58 SZ2 45 S435 +1:04:17 +1:04:17 00:04:05 494 105 599
991 Sanita Šaitere 3203 02:07:05 SZ3 384 S436 +1:04:24 +1:03:15 00:03:47 493 114 607
992 Jānis Stukuls 3290 SK Katrīna 02:07:12 VZ3 486 V556 +1:16:39 +1:16:39 00:03:27 397 101 498
993 Jānis Knēts 4025 Accenture > High Performance 02:07:21 VZ3 487 V557 +1:16:48 +1:16:48 00:03:40 397 95 492
994 Sintija Borskoviča 3912 Accenture > Be Yourself & Make a difference 02:07:23 SZ2 46 S437 +1:04:42 +1:04:42 00:03:41 492 117 609
995 Aleksandrs Voino 3684 02:07:35 VZ3 488 V558 +1:17:02 +1:17:02 00:03:41 396 95 491
996 Mārtiņš Ozollapiņš 3686 Mailigen 02:07:37 VZ3 489 V559 +1:17:04 +1:17:04 00:03:48 396 92 488
997 Oskars Blaus 3997 Nacionālā Aizsardzības akadēmija 02:07:45 VZ3 490 V560 +1:17:12 +1:17:12 00:02:57 396 119 515
998 Laima Dreimane Zvilna 3660 Biznesa parks ABAVA 02:07:55 SZ3 385 S438 +1:05:14 +1:04:05 00:04:10 490 103 593
999 Edīte Bērziņa 3021 02:07:59 SZ3 386 S439 +1:05:18 +1:04:09 00:03:57 490 109 599
1000 Aija Zaļaiskalna 4005 02:08:15 SZ1 8 S440 +1:05:34 +57:36 00:03:45 489 115 604
1001 Inga Lagzdiņa 3737 02:08:26 SZ3 387 S441 +1:05:45 +1:04:36 00:04:06 488 105 593
1002 Laura Vilka 3811 02:08:39 SZ3 388 S442 +1:05:58 +1:04:49 00:03:59 487 108 595
1003 Laura Briede 3198 02:08:43 SZ3 389 S443 +1:06:02 +1:04:53 00:04:09 487 104 591
1004 Inese Vintiša 3993 Tilti Multilingual 02:08:51 SZ3 390 S444 +1:06:10 +1:05:01 00:03:41 486 117 603
1005 Monika Hermane 3623 ATEA 02:08:57 SZ3 391 S445 +1:06:16 +1:05:07 00:04:06 486 105 591
1006 Sandra Abersone 3148 02:09:01 SZ3 392 S446 +1:06:20 +1:05:11 00:04:03 486 106 592
1007 Lolita Dabra 3147 02:09:34 SZ3 393 S447 +1:06:53 +1:05:44 00:04:06 484 105 589
1008 Inga Melne 3966 Olainfarm 02:09:45 SZ3 394 S448 +1:07:04 +1:05:55 00:04:03 483 106 589
1009 Sandra Lūse 3495 Skrienošie Lūši 02:09:50 SZ3 395 S449 +1:07:09 +1:06:00 00:03:47 483 114 597
1010 Jana PŪĶe 3042 PŪĶI 02:10:05 SZ3 396 S450 +1:07:24 +1:06:15 00:04:19 482 100 582
1011 Ilze Dzenovska 3643 FINN CRISP 02:10:17 SZ3 397 S451 +1:07:36 +1:06:27 00:03:53 481 111 592
1012 Anita Kancāne 3054 02:10:25 SZ3 398 S452 +1:07:44 +1:06:35 00:04:04 481 106 587
1013 Sarmīte Loce 3920 Lynxdojo 02:10:25 SZ3 399 S453 +1:07:44 +1:06:35 00:03:47 481 114 595
1014 Līvija Muša 3710 02:10:35 SZ3 400 S454 +1:07:54 +1:06:45 00:04:23 480 98 578
1015 Vjaceslavs Pantepajevs 3845 02:10:46 VZ3 491 V561 +1:20:13 +1:20:13 00:04:11 387 84 471
1016 Anastasija Zabello 3844 02:10:46 SZ3 401 S455 +1:08:05 +1:06:56 00:04:11 479 103 582
1017 Aivis Žukovs 13745 02:11:31 VZ3 492 V562 +1:20:58 +1:20:58 00:04:09 384 84 468
1018 Andrejs Kirma 3749 02:11:38 VZ3 493 V563 +1:21:05 +1:21:05 00:02:25 384 145 529
1019 Erasts Liepa 4082 02:11:54 VZ2 56 V564 +1:21:21 +1:17:06 00:03:32 383 99 482
1020 Laura Rusule 3222 02:11:57 SZ3 402 S456 +1:09:16 +1:08:07 00:04:03 475 106 581
1021 Madara Roziņa 3325 Maratona klubs / VFK Staldzene 02:13:22 SZ3 403 S457 +1:10:41 +1:09:32 00:04:23 470 98 568
1022 Vents Strautmanis 3668 02:14:04 VZ3 494 V565 +1:23:31 +1:23:31 00:03:46 377 93 470
1023 Sandra Krasucka 3515 02:14:05 SZ3 404 S458 +1:11:24 +1:10:15 00:03:46 467 114 581
1024 Artūrs Karlsons 3560 Vecāķi 02:14:29 VZ3 495 V566 +1:23:56 +1:23:56 00:04:27 376 79 455
1025 Inese Ozola 3355 Inbank 02:15:15 SZ3 405 S459 +1:12:34 +1:11:25 00:05:05 463 85 548
1026 Santa Dzenīte 13768 02:15:53 SZ3 406 S460 +1:13:12 +1:12:03 00:04:26 461 97 558
1027 Raivis Pauls 3373 HCP 02:17:09 VZ3 496 V567 +1:26:36 +1:26:36 00:04:21 369 80 449
1028 Una Surna 3043 02:19:18 SZ3 407 S461 +1:16:37 +1:15:28 00:03:56 450 109 559
1029 Santa Logina 3704 Zemgales Ziņas 02:20:04 SZ3 408 S462 +1:17:23 +1:16:14 00:03:23 448 127 575
1030 Marita Dižbite 3483 02:20:17 SZ3 409 S463 +1:17:36 +1:16:27 00:03:59 447 108 555
1031 Danute Ābelīte 3564 02:20:40 SZ3 410 S464 +1:17:59 +1:16:50 00:04:02 446 107 553
1032 Agris Skulte 3907 02:20:43 VZ3 497 V568 +1:30:10 +1:30:10 00:04:07 359 85 444
1033 Zinta Uskale 3566 Rozā vilciena labdarības fonds 02:21:13 SZ3 411 S465 +1:18:32 +1:17:23 00:04:10 444 103 547
1034 Llesma Vicinska 3976 Brocēnu cilpotājas 02:21:20 SZ3 412 S466 +1:18:39 +1:17:30 00:04:57 444 87 531
1035 Ints Upmacis 3110 Surikati 02:22:21 VZ3 498 V569 +1:31:48 +1:31:48 00:04:47 355 73 428
1036 Ance Fokerote 3904 02:23:47 SZ3 413 S467 +1:21:06 +1:19:57 00:03:48 436 113 549
1037 Agnese Nastaja 3905 mammadaba 02:23:53 SZ3 414 S468 +1:21:12 +1:20:03 00:03:45 436 115 551
1038 Terēza Kazimirjonoka 3035 02:23:53 SZ3 415 S469 +1:21:12 +1:20:03 00:04:10 436 103 539
1039 Zane Bormane 13772 Exigen Services Latvia #optimized4running 02:23:58 SZ3 416 S470 +1:21:17 +1:20:08 00:04:12 435 102 537
1040 Elmārs Martinsons 3924 EY 02:24:38 VZ3 499 V570 +1:34:05 +1:34:05 00:02:09 350 163 513
1041 Ineta Elksne 3060 Pazudušais azimuts 02:25:11 SZ3 417 S471 +1:22:30 +1:21:21 00:03:47 432 114 546
1042 Jaan Vehlmann 3272 JK Hermes 02:25:16 VZ3 500 V571 +1:34:43 +1:34:43 00:03:42 348 95 443
1043 Amanda Muceniece 3888 02:25:33 SZ3 418 S472 +1:22:52 +1:21:43 00:04:14 431 102 533
1044 Sanita Babure 3982 Nūjo vesels 02:25:49 SZ3 419 S473 +1:23:08 +1:21:59 00:04:15 430 101 531
1045 Raivis Bartušauskis 4021 Doles sala 02:26:14 VZ3 501 V572 +1:35:41 +1:35:41 00:04:23 346 80 426
1046 Anitra Lokmane 3428 Engures Sportam 02:26:15 SZ3 420 S474 +1:23:34 +1:22:25 00:04:08 429 104 533
1047 Ieva Ozoliņa 3954 02:27:11 SZ3 421 S475 +1:24:30 +1:23:21 00:05:16 426 82 508
1048 Jolanta Švābe 3123 AJFF 02:27:34 SZ3 422 S476 +1:24:53 +1:23:44 00:04:29 425 96 521
1049 Sanita Vecā 4022 02:28:40 SZ3 423 S477 +1:25:59 +1:24:50 00:03:39 422 118 540
1050 Ligija Rāzna 3850 02:29:33 SZ3 424 S478 +1:26:52 +1:25:43 00:04:10 419 103 522
1051 Zane Zilberga 3667 EY 02:30:20 SZ3 425 S479 +1:27:39 +1:26:30 00:03:43 417 116 533
1052 Linda Zālīte 3277 02:30:59 SZ3 426 S480 +1:28:18 +1:27:09 00:05:42 415 75 490
1053 Inita Kuningasa 3216 02:31:03 SZ3 427 S481 +1:28:22 +1:27:13 00:04:10 415 103 518
1054 Irēna Šibeika 3226 Nūjo priekam 02:31:43 SZ3 428 S482 +1:29:02 +1:27:53 00:04:05 413 105 518
1055 Astra Breikša 3097 Nūjo priekam 02:31:43 SZ3 429 S483 +1:29:02 +1:27:53 00:04:02 413 107 520
1056 Aija Perkevica 3281 Lēdmane 02:33:34 SZ3 430 S484 +1:30:53 +1:29:44 00:04:39 408 92 500
1057 Agate Šarkovska 3029 Draugiem Group 02:34:58 SZ3 431 S485 +1:32:17 +1:31:08 00:03:59 404 108 512
1058 Agita Šmaukstele 3008 Draugiem Group 02:34:58 SZ3 432 S486 +1:32:17 +1:31:08 00:03:53 404 111 515
1059 Gunita Rasmane 3009 Draugiem Group 02:35:09 SZ3 433 S487 +1:32:28 +1:31:19 00:04:02 404 107 511
1060 Natālija Baibakova 3010 Draugiem Group 02:35:13 SZ3 434 S488 +1:32:32 +1:31:23 00:04:02 404 107 511
1061 Liene Avotiņa 3620 Banana Fittness 02:35:20 SZ3 435 S489 +1:32:39 +1:31:30 00:04:28 404 96 500
1062 Baiba Ansone 3007 Draugiem Group 02:35:49 SZ3 436 S490 +1:33:08 +1:31:59 00:03:53 402 111 513
1063 Margarita Grīva 3693 02:37:15 SZ3 437 S491 +1:34:34 +1:33:25 00:04:24 399 98 497
1064 Sintija Lūsīte 3691 02:37:15 SZ3 438 S492 +1:34:34 +1:33:25 00:03:58 399 108 507
1065 Māra Dīriņa 13673 Nūjo priekam 02:38:18 SZ3 439 S493 +1:35:37 +1:34:28 00:05:00 396 86 482
1066 Evija Homko 3165 02:41:37 SZ3 440 S494 +1:38:56 +1:37:47 00:03:50 388 112 500
1067 Ilze Pelēce 3763 02:45:06 SZ3 441 S495 +1:42:25 +1:41:16 00:03:27 380 125 505
1068 Gintas Slaustas 3897 Penki Kalnai 02:45:39 VZ3 502 V573 +1:55:06 +1:55:06 00:03:00 305 117 422
1069 Everita Šimkevica 3476 Zemgales Ziņas 02:46:51 SZ3 442 S496 +1:44:10 +1:43:01 00:04:13 376 102 478
1070 Arvīds Pelēcis 3764 02:48:34 VZ2 57 V574 +1:58:01 +1:53:46 00:03:19 300 106 406
1071 Anita Barbane 3630 Nūjo priekam 02:48:38 SZ3 443 S497 +1:45:57 +1:44:48 00:04:53 372 88 460
1072 Inga Ezeriņa 3605 02:59:51 SZ3 444 S498 +1:57:10 +1:56:01 00:04:24 349 98 447
1073 Lolita Palaima 3640 02:59:53 SZ3 445 S499 +1:57:12 +1:56:03 00:03:55 348 110 458
1074 Sarmīte Galiņa 3432 03:06:12 SZ3 446 S500 +2:03:31 +2:02:22 00:07:12 337 60 397
1075 Ilvija Strikauska 13577 03:09:45 SZ3 447 S501 +2:07:04 +2:05:55 00:04:03 330 106 436
1076 Sanita Blumberga 3274 LMT 03:09:46 SZ3 448 S502 +2:07:05 +2:05:56 00:04:04 330 106 436
1077 Gatis Siliņš 13740 DSQ
1078 Mārtiņš Bērziņš 3211 DSQ
1079 Elīna Tračuma 3469 DSQ
1080 Dzintars Kramiņš 3493 Kramiņi DSQ
1081 Dzintars Rērihs 3645 VSK Noskrien Rieksti DSQ
1082 Linda Bērziņa 3677 Saldus Boksa klubs DSQ
1083 Ineta Lamberte 3006 Draugiem Group DSQ